Wetterdaten: Freitag, 07.05.2021
Datum Zeit Temp. Aussen Temp. o. S. Temp +5cm Feuchte Auss Luftdruck Regen Sonnenschein Regendauer Solar Windben Empfang
07.05.2021 00:00 5,5 C 5,0 C 2,8 C 93 % 1007,4 hPa 0,0 l/m 0 min 0 min 0 W/m 6,4 km/h (2 Bft) 100,00 %
07.05.2021 00:02 5,5 C 5,0 C 2,8 C 93 % 1007,4 hPa 0,0 l/m 0 min 0 min 0 W/m 6,4 km/h (2 Bft) 95,74 %
07.05.2021 00:04 5,5 C 5,0 C 2,8 C 93 % 1007,4 hPa 0,0 l/m 0 min 0 min 0 W/m 3,2 km/h (1 Bft) 97,67 %
07.05.2021 00:11 5,5 C 5,0 C 2,8 C 94 % 1007,5 hPa 0,0 l/m 0 min 0 min 0 W/m 6,4 km/h (2 Bft) 100,00 %
07.05.2021 00:12 5,5 C 5,0 C 2,8 C 94 % 1007,5 hPa 0,0 l/m 0 min 0 min 0 W/m 3,2 km/h (1 Bft) 91,30 %
07.05.2021 00:14 5,5 C 5,0 C 2,8 C 93 % 1007,5 hPa 0,0 l/m 0 min 0 min 0 W/m 0,0 km/h (0 Bft) 95,74 %
07.05.2021 00:16 5,5 C 5,0 C 2,8 C 93 % 1007,4 hPa 0,0 l/m 0 min 0 min 0 W/m 0,0 km/h (0 Bft) 95,74 %
07.05.2021 00:18 5,5 C 5,0 C 2,8 C 93 % 1007,4 hPa 0,0 l/m 0 min 0 min 0 W/m 3,2 km/h (1 Bft) 95,74 %
07.05.2021 00:20 5,5 C 5,0 C 2,8 C 94 % 1007,4 hPa 0,0 l/m 0 min 0 min 0 W/m 0,0 km/h (0 Bft) 93,62 %
07.05.2021 00:22 5,5 C 5,0 C 2,8 C 94 % 1007,3 hPa 0,0 l/m 0 min 0 min 0 W/m 0,0 km/h (0 Bft) 51,28 %
07.05.2021 00:24 5,5 C 5,0 C 2,8 C 94 % 1007,5 hPa 0,0 l/m 0 min 0 min 0 W/m 6,4 km/h (2 Bft) 97,96 %
07.05.2021 00:26 5,5 C 5,0 C 2,8 C 94 % 1007,6 hPa 0,0 l/m 0 min 0 min 0 W/m 3,2 km/h (1 Bft) 97,96 %
07.05.2021 00:28 5,5 C 5,0 C 2,8 C 94 % 1007,6 hPa 0,0 l/m 0 min 0 min 0 W/m 3,2 km/h (1 Bft) 97,14 %
07.05.2021 00:30 5,5 C 5,0 C 2,8 C 94 % 1007,7 hPa 0,0 l/m 0 min 0 min 0 W/m 3,2 km/h (1 Bft) 98,31 %
07.05.2021 00:32 5,5 C 4,4 C 2,8 C 94 % 1007,7 hPa 0,0 l/m 0 min 0 min 0 W/m 3,2 km/h (1 Bft) 97,56 %
07.05.2021 00:34 5,5 C 4,4 C 2,3 C 94 % 1007,7 hPa 0,0 l/m 0 min 0 min 0 W/m 0,0 km/h (0 Bft) 97,87 %
07.05.2021 00:36 5,4 C 4,4 C 2,3 C 94 % 1007,8 hPa 0,0 l/m 0 min 0 min 0 W/m 0,0 km/h (0 Bft) 95,92 %
07.05.2021 00:38 5,4 C 4,4 C 2,3 C 94 % 1007,8 hPa 0,0 l/m 0 min 0 min 0 W/m 0,0 km/h (0 Bft) 96,00 %
07.05.2021 00:40 5,4 C 4,4 C 2,3 C 94 % 1007,8 hPa 0,0 l/m 0 min 0 min 0 W/m 3,2 km/h (1 Bft) 97,87 %
07.05.2021 00:42 5,4 C 4,4 C 2,3 C 94 % 1007,8 hPa 0,0 l/m 0 min 0 min 0 W/m 0,0 km/h (0 Bft) 97,14 %
07.05.2021 00:44 5,4 C 4,4 C 2,8 C 94 % 1007,8 hPa 0,0 l/m 0 min 0 min 0 W/m 3,2 km/h (1 Bft) 98,21 %
07.05.2021 00:46 5,4 C 4,4 C 2,8 C 94 % 1007,8 hPa 0,0 l/m 0 min 0 min 0 W/m 3,2 km/h (1 Bft) 95,92 %
07.05.2021 00:48 5,4 C 4,4 C 2,8 C 94 % 1007,8 hPa 0,0 l/m 0 min 0 min 0 W/m 3,2 km/h (1 Bft) 93,62 %
07.05.2021 00:50 5,4 C 4,4 C 2,8 C 94 % 1007,8 hPa 0,0 l/m 0 min 0 min 0 W/m 0,0 km/h (0 Bft) 94,29 %
07.05.2021 00:52 5,4 C 4,4 C 2,8 C 94 % 1007,8 hPa 0,0 l/m 0 min 0 min 0 W/m 0,0 km/h (0 Bft) 94,64 %
07.05.2021 00:54 5,4 C 4,4 C 2,8 C 94 % 1007,9 hPa 0,0 l/m 0 min 0 min 0 W/m 3,2 km/h (1 Bft) 94,00 %
07.05.2021 00:56 5,4 C 4,4 C 2,8 C 94 % 1007,9 hPa 0,0 l/m 0 min 0 min 0 W/m 0,0 km/h (0 Bft) 95,74 %
07.05.2021 00:58 5,4 C 4,4 C 2,8 C 94 % 1007,9 hPa 0,0 l/m 0 min 0 min 0 W/m 3,2 km/h (1 Bft) 91,43 %
07.05.2021 01:00 5,4 C 4,4 C 2,8 C 94 % 1007,9 hPa 0,0 l/m 0 min 0 min 0 W/m 3,2 km/h (1 Bft) 94,55 %
07.05.2021 01:02 5,4 C 4,4 C 2,8 C 94 % 1007,9 hPa 0,0 l/m 0 min 0 min 0 W/m 0,0 km/h (0 Bft) 94,00 %
07.05.2021 01:04 5,4 C 5,0 C 2,8 C 94 % 1008,0 hPa 0,0 l/m 0 min 0 min 0 W/m 3,2 km/h (1 Bft) 94,29 %
07.05.2021 01:06 5,4 C 5,0 C 2,8 C 94 % 1007,9 hPa 0,0 l/m 0 min 0 min 0 W/m 0,0 km/h (0 Bft) 98,21 %
07.05.2021 01:08 5,4 C 5,0 C 2,8 C 95 % 1007,9 hPa 0,0 l/m 0 min 0 min 0 W/m 0,0 km/h (0 Bft) 97,96 %
07.05.2021 01:10 5,4 C 5,0 C 2,8 C 95 % 1007,9 hPa 0,0 l/m 0 min 0 min 0 W/m 0,0 km/h (0 Bft) 97,87 %
07.05.2021 01:12 5,4 C 5,0 C 2,8 C 95 % 1007,9 hPa 0,0 l/m 0 min 0 min 0 W/m 0,0 km/h (0 Bft) 94,29 %
07.05.2021 01:14 5,4 C 5,0 C 2,8 C 95 % 1007,9 hPa 0,0 l/m 0 min 0 min 0 W/m 0,0 km/h (0 Bft) 98,21 %
07.05.2021 01:16 5,4 C 5,0 C 2,8 C 95 % 1008,0 hPa 0,0 l/m 0 min 0 min 0 W/m 0,0 km/h (0 Bft) 96,00 %
07.05.2021 01:18 5,4 C 5,0 C 2,8 C 95 % 1007,9 hPa 0,0 l/m 0 min 0 min 0 W/m 0,0 km/h (0 Bft) 97,78 %
07.05.2021 01:20 5,4 C 5,0 C 2,8 C 94 % 1008,0 hPa 0,0 l/m 0 min 0 min 0 W/m 0,0 km/h (0 Bft) 95,83 %
07.05.2021 01:22 5,4 C 5,0 C 2,8 C 94 % 1008,0 hPa 0,0 l/m 0 min 0 min 0 W/m 0,0 km/h (0 Bft) 97,22 %
07.05.2021 01:24 5,3 C 5,0 C 2,8 C 94 % 1008,0 hPa 0,0 l/m 0 min 0 min 0 W/m 12,9 km/h (3 Bft) 96,55 %
07.05.2021 01:26 5,3 C 5,0 C 2,8 C 94 % 1008,0 hPa 0,0 l/m 0 min 0 min 0 W/m 6,4 km/h (2 Bft) 100,00 %
07.05.2021 01:28 5,3 C 5,0 C 3,4 C 94 % 1008,0 hPa 0,0 l/m 0 min 0 min 0 W/m 3,2 km/h (1 Bft) 100,00 %
07.05.2021 01:30 5,3 C 5,0 C 3,4 C 94 % 1008,1 hPa 0,0 l/m 0 min 2 min 0 W/m 3,2 km/h (1 Bft) 95,74 %
07.05.2021 01:32 5,3 C 5,0 C 2,8 C 94 % 1008,1 hPa 0,0 l/m 0 min 2 min 0 W/m 3,2 km/h (1 Bft) 100,00 %
07.05.2021 01:34 5,3 C 5,0 C 2,8 C 94 % 1008,1 hPa 0,0 l/m 0 min 0 min 0 W/m 6,4 km/h (2 Bft) 97,14 %
07.05.2021 01:36 5,3 C 5,0 C 2,8 C 94 % 1008,1 hPa 0,0 l/m 0 min 0 min 0 W/m 6,4 km/h (2 Bft) 100,00 %
07.05.2021 01:38 5,3 C 4,4 C 2,8 C 94 % 1008,2 hPa 0,0 l/m 0 min 0 min 0 W/m 9,7 km/h (2 Bft) 100,00 %
07.05.2021 01:40 5,3 C 4,4 C 2,8 C 95 % 1008,1 hPa 0,0 l/m 0 min 0 min 0 W/m 9,7 km/h (2 Bft) 100,00 %
07.05.2021 01:42 5,2 C 4,4 C 2,8 C 95 % 1008,1 hPa 0,0 l/m 0 min 0 min 0 W/m 3,2 km/h (1 Bft) 100,00 %
07.05.2021 01:44 5,2 C 4,4 C 2,8 C 95 % 1008,2 hPa 0,0 l/m 0 min 0 min 0 W/m 6,4 km/h (2 Bft) 100,00 %
07.05.2021 01:46 5,2 C 4,4 C 2,8 C 95 % 1008,2 hPa 0,0 l/m 0 min 0 min 0 W/m 9,7 km/h (2 Bft) 100,00 %
07.05.2021 01:48 5,2 C 4,4 C 2,8 C 95 % 1008,2 hPa 0,0 l/m 0 min 0 min 0 W/m 3,2 km/h (1 Bft) 100,00 %
07.05.2021 01:50 5,1 C 4,4 C 2,8 C 95 % 1008,2 hPa 0,0 l/m 0 min 0 min 0 W/m 12,9 km/h (3 Bft) 100,00 %
07.05.2021 01:52 5,1 C 4,4 C 2,8 C 95 % 1008,2 hPa 0,0 l/m 0 min 0 min 0 W/m 12,9 km/h (3 Bft) 100,00 %
07.05.2021 01:54 5,1 C 4,4 C 2,8 C 95 % 1008,2 hPa 0,0 l/m 0 min 0 min 0 W/m 6,4 km/h (2 Bft) 100,00 %
07.05.2021 01:56 5,1 C 4,4 C 2,8 C 95 % 1008,2 hPa 0,0 l/m 0 min 0 min 0 W/m 6,4 km/h (2 Bft) 100,00 %
07.05.2021 01:58 5,1 C 4,4 C 2,8 C 95 % 1008,3 hPa 0,0 l/m 0 min 0 min 0 W/m 6,4 km/h (2 Bft) 100,00 %
07.05.2021 02:00 5,1 C 4,4 C 2,8 C 95 % 1008,2 hPa 0,0 l/m 0 min 0 min 0 W/m 6,4 km/h (2 Bft) 100,00 %
07.05.2021 02:02 5,1 C 4,4 C 2,8 C 95 % 1008,2 hPa 0,0 l/m 0 min 0 min 0 W/m 12,9 km/h (3 Bft) 100,00 %
07.05.2021 02:04 5,0 C 4,4 C 2,8 C 95 % 1008,2 hPa 0,0 l/m 0 min 0 min 0 W/m 6,4 km/h (2 Bft) 100,00 %
07.05.2021 02:06 5,0 C 4,4 C 2,8 C 95 % 1008,2 hPa 0,0 l/m 0 min 0 min 0 W/m 3,2 km/h (1 Bft) 98,11 %
07.05.2021 02:08 5,0 C 4,4 C 2,8 C 95 % 1008,3 hPa 0,0 l/m 0 min 0 min 0 W/m 6,4 km/h (2 Bft) 97,83 %
07.05.2021 02:10 5,0 C 4,4 C 2,8 C 95 % 1008,3 hPa 0,0 l/m 0 min 0 min 0 W/m 3,2 km/h (1 Bft) 100,00 %
07.05.2021 02:12 4,9 C 4,4 C 2,8 C 95 % 1008,3 hPa 0,0 l/m 0 min 0 min 0 W/m 3,2 km/h (1 Bft) 100,00 %
07.05.2021 02:14 4,9 C 4,4 C 2,8 C 95 % 1008,3 hPa 0,0 l/m 0 min 0 min 0 W/m 3,2 km/h (1 Bft) 98,00 %
07.05.2021 02:16 4,9 C 3,9 C 2,8 C 95 % 1008,3 hPa 0,0 l/m 0 min 0 min 0 W/m 3,2 km/h (1 Bft) 100,00 %
07.05.2021 02:18 4,9 C 3,9 C 2,3 C 95 % 1008,3 hPa 0,0 l/m 0 min 0 min 0 W/m 6,4 km/h (2 Bft) 100,00 %
07.05.2021 02:20 4,9 C 3,9 C 2,3 C 95 % 1008,4 hPa 0,0 l/m 0 min 0 min 0 W/m 3,2 km/h (1 Bft) 100,00 %
07.05.2021 02:22 4,8 C 3,9 C 2,3 C 95 % 1008,4 hPa 0,0 l/m 0 min 0 min 0 W/m 3,2 km/h (1 Bft) 100,00 %
07.05.2021 02:24 4,8 C 3,9 C 2,3 C 95 % 1008,4 hPa 0,0 l/m 0 min 0 min 0 W/m 9,7 km/h (2 Bft) 100,00 %
07.05.2021 02:26 4,8 C 3,9 C 2,3 C 95 % 1008,4 hPa 0,0 l/m 0 min 0 min 0 W/m 3,2 km/h (1 Bft) 100,00 %
07.05.2021 02:28 4,7 C 3,9 C 2,3 C 95 % 1008,5 hPa 0,0 l/m 0 min 0 min 0 W/m 6,4 km/h (2 Bft) 100,00 %
07.05.2021 02:30 4,8 C 3,9 C 2,3 C 95 % 1008,5 hPa 0,0 l/m 0 min 0 min 0 W/m 6,4 km/h (2 Bft) 63,64 %
07.05.2021 02:32 4,7 C 3,9 C 2,3 C 95 % 1008,5 hPa 0,0 l/m 0 min 0 min 0 W/m 6,4 km/h (2 Bft) 98,00 %
07.05.2021 02:34 4,8 C 3,9 C 2,3 C 95 % 1008,5 hPa 0,0 l/m 0 min 0 min 0 W/m 6,4 km/h (2 Bft) 97,14 %
07.05.2021 02:36 4,8 C 3,9 C 2,3 C 95 % 1008,5 hPa 0,0 l/m 0 min 0 min 0 W/m 6,4 km/h (2 Bft) 98,21 %
07.05.2021 02:38 4,7 C 3,9 C 2,8 C 95 % 1008,5 hPa 0,0 l/m 0 min 0 min 0 W/m 3,2 km/h (1 Bft) 100,00 %
07.05.2021 02:40 4,7 C 3,9 C 2,8 C 95 % 1008,4 hPa 0,0 l/m 0 min 0 min 0 W/m 6,4 km/h (2 Bft) 100,00 %
07.05.2021 02:42 4,8 C 4,4 C 2,8 C 95 % 1008,5 hPa 0,0 l/m 0 min 0 min 0 W/m 3,2 km/h (1 Bft) 100,00 %
07.05.2021 02:44 4,8 C 4,4 C 2,8 C 95 % 1008,4 hPa 0,0 l/m 0 min 0 min 0 W/m 6,4 km/h (2 Bft) 100,00 %
07.05.2021 02:46 4,8 C 4,4 C 2,8 C 95 % 1008,4 hPa 0,0 l/m 0 min 0 min 0 W/m 6,4 km/h (2 Bft) 100,00 %
07.05.2021 02:48 4,8 C 3,9 C 2,8 C 95 % 1008,4 hPa 0,0 l/m 0 min 0 min 0 W/m 9,7 km/h (2 Bft) 100,00 %
07.05.2021 02:50 4,8 C 4,4 C 2,8 C 95 % 1008,5 hPa 0,0 l/m 0 min 0 min 0 W/m 3,2 km/h (1 Bft) 100,00 %
07.05.2021 02:52 4,8 C 3,9 C 2,8 C 95 % 1008,5 hPa 0,0 l/m 0 min 0 min 0 W/m 9,7 km/h (2 Bft) 100,00 %
07.05.2021 02:58 4,8 C 3,9 C 2,8 C 95 % 1008,6 hPa 0,0 l/m 0 min 0 min 0 W/m 6,4 km/h (2 Bft) 100,00 %
07.05.2021 03:00 4,8 C 3,9 C 2,8 C 95 % 1008,5 hPa 0,0 l/m 0 min 0 min 0 W/m 6,4 km/h (2 Bft) 97,87 %
07.05.2021 03:02 4,8 C 3,9 C 2,8 C 95 % 1008,6 hPa 0,0 l/m 0 min 0 min 0 W/m 6,4 km/h (2 Bft) 100,00 %
07.05.2021 03:04 4,8 C 4,4 C 2,8 C 95 % 1008,5 hPa 0,0 l/m 0 min 0 min 0 W/m 6,4 km/h (2 Bft) 95,74 %
07.05.2021 03:06 4,8 C 4,4 C 2,8 C 95 % 1008,6 hPa 0,0 l/m 0 min 0 min 0 W/m 6,4 km/h (2 Bft) 97,87 %
07.05.2021 03:08 4,8 C 4,4 C 2,8 C 95 % 1008,5 hPa 0,0 l/m 0 min 0 min 0 W/m 9,7 km/h (2 Bft) 97,83 %
07.05.2021 03:10 4,8 C 4,4 C 2,8 C 95 % 1008,6 hPa 0,0 l/m 0 min 0 min 0 W/m 3,2 km/h (1 Bft) 97,87 %
07.05.2021 03:12 4,8 C 3,9 C 2,8 C 96 % 1008,6 hPa 0,0 l/m 0 min 0 min 0 W/m 6,4 km/h (2 Bft) 96,43 %
07.05.2021 03:14 4,8 C 4,4 C 2,8 C 96 % 1008,5 hPa 0,0 l/m 0 min 0 min 0 W/m 6,4 km/h (2 Bft) 97,96 %
07.05.2021 03:16 4,7 C 3,9 C 2,8 C 96 % 1008,6 hPa 0,0 l/m 0 min 0 min 0 W/m 6,4 km/h (2 Bft) 97,44 %
07.05.2021 03:18 4,7 C 3,9 C 2,8 C 96 % 1008,5 hPa 0,0 l/m 0 min 0 min 0 W/m 3,2 km/h (1 Bft) 95,65 %
07.05.2021 03:20 4,7 C 3,9 C 2,8 C 96 % 1008,6 hPa 0,0 l/m 0 min 0 min 0 W/m 3,2 km/h (1 Bft) 94,64 %
07.05.2021 03:22 4,7 C 3,9 C 2,8 C 96 % 1008,6 hPa 0,0 l/m 0 min 0 min 0 W/m 3,2 km/h (1 Bft) 97,37 %
07.05.2021 03:24 4,7 C 3,9 C 2,8 C 96 % 1008,6 hPa 0,0 l/m 0 min 0 min 0 W/m 6,4 km/h (2 Bft) 95,74 %
07.05.2021 03:26 4,6 C 3,9 C 2,3 C 96 % 1008,6 hPa 0,0 l/m 0 min 0 min 0 W/m 9,7 km/h (2 Bft) 94,00 %
07.05.2021 03:28 4,6 C 3,9 C 2,3 C 96 % 1008,7 hPa 0,0 l/m 0 min 0 min 0 W/m 3,2 km/h (1 Bft) 93,48 %
07.05.2021 03:30 4,6 C 3,9 C 2,3 C 96 % 1008,7 hPa 0,0 l/m 0 min 0 min 0 W/m 3,2 km/h (1 Bft) 95,45 %
07.05.2021 03:32 4,6 C 3,9 C 2,3 C 96 % 1008,7 hPa 0,0 l/m 0 min 0 min 0 W/m 3,2 km/h (1 Bft) 94,00 %
07.05.2021 03:34 4,6 C 3,9 C 2,8 C 96 % 1008,7 hPa 0,0 l/m 0 min 0 min 0 W/m 6,4 km/h (2 Bft) 97,87 %
07.05.2021 03:36 4,6 C 3,9 C 2,8 C 96 % 1008,7 hPa 0,0 l/m 0 min 0 min 0 W/m 3,2 km/h (1 Bft) 95,45 %
07.05.2021 03:38 4,6 C 3,9 C 2,8 C 96 % 1008,7 hPa 0,0 l/m 0 min 0 min 0 W/m 3,2 km/h (1 Bft) 94,00 %
07.05.2021 03:40 4,6 C 3,9 C 2,8 C 96 % 1008,8 hPa 0,0 l/m 0 min 0 min 0 W/m 3,2 km/h (1 Bft) 95,65 %
07.05.2021 03:42 4,6 C 3,9 C 2,8 C 96 % 1008,7 hPa 0,0 l/m 0 min 0 min 0 W/m 3,2 km/h (1 Bft) 95,74 %
07.05.2021 03:44 4,6 C 3,9 C 2,8 C 96 % 1008,7 hPa 0,0 l/m 0 min 0 min 0 W/m 3,2 km/h (1 Bft) 95,74 %
07.05.2021 03:46 4,6 C 3,9 C 2,8 C 96 % 1008,7 hPa 0,0 l/m 0 min 0 min 0 W/m 3,2 km/h (1 Bft) 93,18 %
07.05.2021 03:48 4,6 C 3,9 C 2,8 C 96 % 1008,7 hPa 0,0 l/m 0 min 0 min 0 W/m 6,4 km/h (2 Bft) 96,00 %
07.05.2021 03:50 4,7 C 3,9 C 2,8 C 96 % 1008,7 hPa 0,0 l/m 0 min 0 min 0 W/m 3,2 km/h (1 Bft) 93,62 %
07.05.2021 03:56 4,6 C 3,9 C 2,8 C 96 % 1008,8 hPa 0,0 l/m 0 min 0 min 0 W/m 3,2 km/h (1 Bft) 100,00 %
07.05.2021 03:58 4,6 C 3,9 C 2,8 C 96 % 1008,8 hPa 0,0 l/m 0 min 0 min 0 W/m 3,2 km/h (1 Bft) 97,87 %
07.05.2021 04:00 4,6 C 3,9 C 2,8 C 96 % 1008,8 hPa 0,0 l/m 0 min 0 min 0 W/m 3,2 km/h (1 Bft) 97,87 %
07.05.2021 04:02 4,6 C 3,9 C 2,8 C 96 % 1008,8 hPa 0,0 l/m 0 min 0 min 0 W/m 3,2 km/h (1 Bft) 100,00 %
07.05.2021 04:07 4,5 C 3,9 C 2,8 C 96 % 1008,9 hPa 0,0 l/m 0 min 0 min 0 W/m 3,2 km/h (1 Bft) 97,87 %
07.05.2021 04:08 4,5 C 3,9 C 2,8 C 96 % 1008,9 hPa 0,0 l/m 0 min 0 min 0 W/m 0,0 km/h (0 Bft) 91,30 %
07.05.2021 04:10 4,5 C 3,9 C 2,8 C 96 % 1008,9 hPa 0,0 l/m 0 min 0 min 0 W/m 6,4 km/h (2 Bft) 91,49 %
07.05.2021 04:12 4,5 C 3,9 C 2,8 C 96 % 1008,9 hPa 0,0 l/m 0 min 0 min 0 W/m 3,2 km/h (1 Bft) 100,00 %
07.05.2021 04:18 4,4 C 3,3 C 2,8 C 96 % 1009,0 hPa 0,0 l/m 0 min 0 min 0 W/m 3,2 km/h (1 Bft) 100,00 %
07.05.2021 04:20 4,4 C 3,3 C 2,3 C 96 % 1008,9 hPa 0,0 l/m 0 min 0 min 0 W/m 3,2 km/h (1 Bft) 95,74 %
07.05.2021 04:22 4,3 C 3,3 C 2,3 C 96 % 1008,9 hPa 0,0 l/m 0 min 0 min 0 W/m 0,0 km/h (0 Bft) 95,74 %
07.05.2021 04:24 4,3 C 3,3 C 2,3 C 96 % 1008,9 hPa 0,0 l/m 0 min 0 min 0 W/m 3,2 km/h (1 Bft) 93,62 %
07.05.2021 04:26 4,3 C 3,3 C 2,3 C 96 % 1009,0 hPa 0,0 l/m 0 min 0 min 0 W/m 3,2 km/h (1 Bft) 95,74 %
07.05.2021 04:28 4,3 C 3,3 C 2,3 C 96 % 1009,0 hPa 0,0 l/m 0 min 0 min 0 W/m 0,0 km/h (0 Bft) 97,83 %
07.05.2021 04:30 4,3 C 3,3 C 2,3 C 96 % 1009,0 hPa 0,0 l/m 0 min 0 min 0 W/m 0,0 km/h (0 Bft) 96,30 %
07.05.2021 04:32 4,2 C 3,3 C 2,3 C 96 % 1009,0 hPa 0,0 l/m 0 min 0 min 0 W/m 6,4 km/h (2 Bft) 94,74 %
07.05.2021 04:34 4,1 C 3,3 C 2,3 C 96 % 1009,0 hPa 0,0 l/m 0 min 0 min 0 W/m 0,0 km/h (0 Bft) 96,49 %
07.05.2021 04:36 4,1 C 3,3 C 1,7 C 96 % 1009,1 hPa 0,0 l/m 0 min 0 min 0 W/m 0,0 km/h (0 Bft) 94,74 %
07.05.2021 04:38 4,1 C 3,3 C 1,7 C 96 % 1009,1 hPa 0,0 l/m 0 min 0 min 0 W/m 0,0 km/h (0 Bft) 95,74 %
07.05.2021 04:40 4,1 C 3,3 C 1,7 C 96 % 1009,1 hPa 0,0 l/m 0 min 0 min 0 W/m 0,0 km/h (0 Bft) 95,74 %
07.05.2021 04:42 4,1 C 3,3 C 1,7 C 96 % 1009,1 hPa 0,0 l/m 0 min 0 min 0 W/m 0,0 km/h (0 Bft) 93,62 %
07.05.2021 04:44 4,1 C 3,3 C 1,7 C 96 % 1009,2 hPa 0,0 l/m 0 min 0 min 0 W/m 3,2 km/h (1 Bft) 95,74 %
07.05.2021 04:46 4,1 C 3,3 C 1,7 C 96 % 1009,2 hPa 0,0 l/m 0 min 0 min 0 W/m 0,0 km/h (0 Bft) 95,74 %
07.05.2021 04:48 4,1 C 3,3 C 1,7 C 96 % 1009,3 hPa 0,0 l/m 0 min 0 min 0 W/m 6,4 km/h (2 Bft) 97,87 %
07.05.2021 04:50 4,1 C 3,3 C 1,7 C 96 % 1009,3 hPa 0,0 l/m 0 min 0 min 0 W/m 0,0 km/h (0 Bft) 98,15 %
07.05.2021 04:52 4,1 C 3,3 C 1,7 C 96 % 1009,4 hPa 0,0 l/m 0 min 0 min 0 W/m 3,2 km/h (1 Bft) 97,37 %
07.05.2021 04:54 4,0 C 3,3 C 1,7 C 96 % 1009,4 hPa 0,0 l/m 0 min 0 min 0 W/m 3,2 km/h (1 Bft) 97,92 %
07.05.2021 04:56 4,0 C 3,3 C 1,7 C 96 % 1009,4 hPa 0,0 l/m 0 min 0 min 0 W/m 3,2 km/h (1 Bft) 97,87 %
07.05.2021 04:58 4,0 C 3,3 C 1,7 C 96 % 1009,5 hPa 0,0 l/m 0 min 0 min 0 W/m 3,2 km/h (1 Bft) 97,87 %
07.05.2021 05:00 4,0 C 3,3 C 2,3 C 96 % 1009,5 hPa 0,0 l/m 0 min 0 min 0 W/m 0,0 km/h (0 Bft) 96,30 %
07.05.2021 05:02 4,0 C 3,3 C 2,3 C 96 % 1009,5 hPa 0,0 l/m 0 min 0 min 0 W/m 3,2 km/h (1 Bft) 100,00 %
07.05.2021 05:04 4,0 C 3,3 C 2,3 C 96 % 1009,5 hPa 0,0 l/m 0 min 0 min 0 W/m 3,2 km/h (1 Bft) 95,83 %
07.05.2021 05:06 4,1 C 3,3 C 2,3 C 96 % 1009,5 hPa 0,0 l/m 0 min 0 min 0 W/m 3,2 km/h (1 Bft) 95,74 %
07.05.2021 05:08 4,1 C 3,3 C 2,3 C 96 % 1009,4 hPa 0,0 l/m 0 min 0 min 0 W/m 3,2 km/h (1 Bft) 97,87 %
07.05.2021 05:10 4,1 C 3,3 C 2,3 C 96 % 1009,5 hPa 0,0 l/m 0 min 0 min 0 W/m 0,0 km/h (0 Bft) 95,74 %
07.05.2021 05:12 4,1 C 3,3 C 2,3 C 96 % 1009,5 hPa 0,0 l/m 0 min 0 min 0 W/m 3,2 km/h (1 Bft) 90,74 %
07.05.2021 05:14 4,1 C 3,3 C 2,3 C 96 % 1009,5 hPa 0,0 l/m 0 min 0 min 0 W/m 3,2 km/h (1 Bft) 97,87 %
07.05.2021 05:16 4,1 C 3,3 C 2,3 C 97 % 1009,4 hPa 0,0 l/m 0 min 0 min 0 W/m 0,0 km/h (0 Bft) 97,37 %
07.05.2021 05:18 4,1 C 3,3 C 2,3 C 97 % 1009,5 hPa 0,0 l/m 0 min 0 min 0 W/m 6,4 km/h (2 Bft) 97,92 %
07.05.2021 05:20 4,1 C 3,3 C 2,3 C 97 % 1009,5 hPa 0,0 l/m 0 min 0 min 0 W/m 6,4 km/h (2 Bft) 95,74 %
07.05.2021 05:22 4,1 C 3,3 C 2,3 C 97 % 1009,5 hPa 0,0 l/m 0 min 0 min 0 W/m 0,0 km/h (0 Bft) 96,30 %
07.05.2021 05:24 4,1 C 3,3 C 2,3 C 97 % 1009,5 hPa 0,0 l/m 0 min 0 min 0 W/m 3,2 km/h (1 Bft) 97,44 %
07.05.2021 05:26 4,1 C 3,3 C 2,3 C 96 % 1009,5 hPa 0,0 l/m 0 min 0 min 0 W/m 3,2 km/h (1 Bft) 95,65 %
07.05.2021 05:28 4,1 C 3,3 C 2,3 C 96 % 1009,5 hPa 0,0 l/m 0 min 0 min 0 W/m 0,0 km/h (0 Bft) 93,62 %
07.05.2021 05:30 4,0 C 3,3 C 2,3 C 96 % 1009,5 hPa 0,0 l/m 0 min 0 min 0 W/m 0,0 km/h (0 Bft) 95,83 %
07.05.2021 05:32 4,0 C 3,3 C 2,3 C 96 % 1009,5 hPa 0,0 l/m 0 min 0 min 0 W/m 0,0 km/h (0 Bft) 97,87 %
07.05.2021 05:34 4,0 C 2,8 C 1,7 C 97 % 1009,5 hPa 0,0 l/m 0 min 0 min 0 W/m 3,2 km/h (1 Bft) 97,87 %
07.05.2021 05:36 3,9 C 2,8 C 1,7 C 97 % 1009,6 hPa 0,0 l/m 0 min 0 min 0 W/m 0,0 km/h (0 Bft) 98,15 %
07.05.2021 05:38 3,9 C 2,8 C 1,7 C 96 % 1009,6 hPa 0,0 l/m 0 min 0 min 0 W/m 0,0 km/h (0 Bft) 97,44 %
07.05.2021 05:40 3,9 C 2,8 C 1,7 C 97 % 1009,6 hPa 0,0 l/m 0 min 0 min 0 W/m 0,0 km/h (0 Bft) 97,87 %
07.05.2021 05:42 3,9 C 2,8 C 1,7 C 97 % 1009,6 hPa 0,0 l/m 0 min 0 min 0 W/m 0,0 km/h (0 Bft) 95,74 %
07.05.2021 05:44 3,8 C 2,8 C 1,7 C 96 % 1009,6 hPa 0,0 l/m 0 min 0 min 0 W/m 0,0 km/h (0 Bft) 95,74 %
07.05.2021 05:46 3,8 C 2,8 C 1,7 C 96 % 1009,7 hPa 0,0 l/m 0 min 0 min 0 W/m 0,0 km/h (0 Bft) 94,55 %
07.05.2021 05:48 3,8 C 2,8 C 1,7 C 96 % 1009,7 hPa 0,0 l/m 0 min 0 min 0 W/m 3,2 km/h (1 Bft) 97,37 %
07.05.2021 05:50 3,7 C 2,8 C 1,7 C 96 % 1009,7 hPa 0,0 l/m 0 min 0 min 0 W/m 0,0 km/h (0 Bft) 97,87 %
07.05.2021 05:52 3,6 C 2,8 C 1,7 C 96 % 1009,7 hPa 0,0 l/m 0 min 0 min 0 W/m 0,0 km/h (0 Bft) 96,00 %
07.05.2021 05:54 3,6 C 2,8 C 1,7 C 96 % 1009,8 hPa 0,0 l/m 0 min 0 min 0 W/m 0,0 km/h (0 Bft) 95,74 %
07.05.2021 05:56 3,6 C 2,8 C 1,7 C 96 % 1009,8 hPa 0,0 l/m 0 min 0 min 0 W/m 3,2 km/h (1 Bft) 95,45 %
07.05.2021 05:58 3,6 C 2,8 C 1,7 C 96 % 1009,9 hPa 0,0 l/m 0 min 0 min 1 W/m 3,2 km/h (1 Bft) 100,00 %
07.05.2021 06:00 3,6 C 2,8 C 1,7 C 97 % 1009,9 hPa 0,0 l/m 0 min 0 min 5 W/m 3,2 km/h (1 Bft) 97,96 %
07.05.2021 06:02 3,6 C 2,8 C 1,7 C 97 % 1009,9 hPa 0,0 l/m 0 min 0 min 6 W/m 3,2 km/h (1 Bft) 97,87 %
07.05.2021 06:04 3,6 C 2,8 C 1,7 C 97 % 1010,0 hPa 0,0 l/m 0 min 0 min 7 W/m 3,2 km/h (1 Bft) 100,00 %
07.05.2021 06:08 3,6 C 2,8 C 1,7 C 97 % 1009,9 hPa 0,0 l/m 0 min 0 min 9 W/m 6,4 km/h (2 Bft) 97,83 %
07.05.2021 06:10 3,6 C 2,8 C 1,7 C 97 % 1009,9 hPa 0,0 l/m 0 min 0 min 12 W/m 0,0 km/h (0 Bft) 100,00 %
07.05.2021 06:12 3,5 C 2,8 C 1,7 C 97 % 1010,0 hPa 0,0 l/m 0 min 0 min 13 W/m 0,0 km/h (0 Bft) 100,00 %
07.05.2021 06:14 3,6 C 2,8 C 1,7 C 97 % 1010,0 hPa 0,0 l/m 0 min 0 min 15 W/m 9,7 km/h (2 Bft) 100,00 %
07.05.2021 06:16 3,5 C 2,8 C 1,7 C 97 % 1009,9 hPa 0,0 l/m 0 min 0 min 18 W/m 3,2 km/h (1 Bft) 100,00 %
07.05.2021 06:18 3,6 C 2,8 C 1,7 C 97 % 1009,9 hPa 0,0 l/m 2 min 0 min 21 W/m 0,0 km/h (0 Bft) 100,00 %
07.05.2021 06:20 3,5 C 2,8 C 1,7 C 97 % 1009,9 hPa 0,0 l/m 2 min 0 min 23 W/m 3,2 km/h (1 Bft) 100,00 %
07.05.2021 06:22 3,6 C 2,8 C 1,7 C 97 % 1010,0 hPa 0,0 l/m 0 min 0 min 23 W/m 3,2 km/h (1 Bft) 100,00 %
07.05.2021 06:24 3,6 C 3,3 C 2,3 C 97 % 1009,9 hPa 0,0 l/m 0 min 0 min 25 W/m 0,0 km/h (0 Bft) 100,00 %
07.05.2021 06:26 3,6 C 3,3 C 2,3 C 97 % 1009,9 hPa 0,0 l/m 2 min 0 min 29 W/m 3,2 km/h (1 Bft) 100,00 %
07.05.2021 06:28 3,6 C 3,3 C 2,3 C 97 % 1009,9 hPa 0,0 l/m 0 min 0 min 28 W/m 3,2 km/h (1 Bft) 100,00 %
07.05.2021 06:30 3,6 C 3,3 C 2,3 C 97 % 1009,9 hPa 0,0 l/m 0 min 0 min 26 W/m 3,2 km/h (1 Bft) 100,00 %
07.05.2021 06:32 3,6 C 3,3 C 2,3 C 97 % 1010,0 hPa 0,0 l/m 0 min 0 min 24 W/m 3,2 km/h (1 Bft) 100,00 %
07.05.2021 06:34 3,6 C 3,3 C 2,3 C 97 % 1010,0 hPa 0,0 l/m 0 min 0 min 23 W/m 3,2 km/h (1 Bft) 100,00 %
07.05.2021 06:36 3,6 C 3,3 C 2,3 C 97 % 1010,0 hPa 0,0 l/m 0 min 0 min 26 W/m 12,9 km/h (3 Bft) 100,00 %
07.05.2021 06:38 3,6 C 3,3 C 2,3 C 97 % 1009,9 hPa 0,0 l/m 0 min 0 min 31 W/m 6,4 km/h (2 Bft) 100,00 %
07.05.2021 06:40 3,6 C 3,3 C 2,3 C 97 % 1010,0 hPa 0,0 l/m 0 min 0 min 33 W/m 9,7 km/h (2 Bft) 100,00 %
07.05.2021 06:42 3,6 C 3,3 C 2,3 C 97 % 1010,0 hPa 0,0 l/m 0 min 0 min 37 W/m 6,4 km/h (2 Bft) 100,00 %
07.05.2021 06:44 3,7 C 3,3 C 2,3 C 97 % 1010,0 hPa 0,0 l/m 0 min 0 min 42 W/m 9,7 km/h (2 Bft) 100,00 %
07.05.2021 06:46 3,7 C 3,3 C 2,3 C 97 % 1010,1 hPa 0,0 l/m 0 min 0 min 51 W/m 6,4 km/h (2 Bft) 100,00 %
07.05.2021 06:48 3,8 C 3,3 C 2,3 C 97 % 1010,1 hPa 0,0 l/m 2 min 0 min 60 W/m 9,7 km/h (2 Bft) 100,00 %
07.05.2021 06:50 3,8 C 3,9 C 2,3 C 97 % 1010,2 hPa 0,0 l/m 2 min 0 min 65 W/m 6,4 km/h (2 Bft) 100,00 %
07.05.2021 06:52 3,9 C 3,9 C 2,3 C 97 % 1010,2 hPa 0,0 l/m 2 min 0 min 69 W/m 3,2 km/h (1 Bft) 100,00 %
07.05.2021 06:54 3,9 C 3,9 C 2,8 C 97 % 1010,3 hPa 0,0 l/m 2 min 0 min 66 W/m 6,4 km/h (2 Bft) 98,00 %
07.05.2021 06:56 3,9 C 3,9 C 2,8 C 97 % 1010,4 hPa 0,0 l/m 0 min 0 min 56 W/m 6,4 km/h (2 Bft) 100,00 %
07.05.2021 06:58 4,0 C 3,9 C 2,8 C 97 % 1010,4 hPa 0,0 l/m 0 min 0 min 51 W/m 6,4 km/h (2 Bft) 100,00 %
07.05.2021 07:00 4,0 C 3,9 C 2,8 C 97 % 1010,4 hPa 0,0 l/m 0 min 0 min 48 W/m 6,4 km/h (2 Bft) 97,73 %
07.05.2021 07:02 4,1 C 3,9 C 2,8 C 97 % 1010,5 hPa 0,0 l/m 0 min 0 min 46 W/m 6,4 km/h (2 Bft) 100,00 %
07.05.2021 07:04 4,1 C 3,9 C 2,8 C 97 % 1010,5 hPa 0,0 l/m 0 min 0 min 41 W/m 6,4 km/h (2 Bft) 100,00 %
07.05.2021 07:06 4,1 C 3,9 C 2,8 C 97 % 1010,6 hPa 0,0 l/m 0 min 0 min 32 W/m 6,4 km/h (2 Bft) 98,00 %
07.05.2021 07:08 4,2 C 3,9 C 2,8 C 97 % 1010,6 hPa 0,0 l/m 0 min 0 min 22 W/m 3,2 km/h (1 Bft) 97,83 %
07.05.2021 07:10 4,2 C 3,9 C 2,8 C 97 % 1010,6 hPa 0,0 l/m 0 min 0 min 16 W/m 3,2 km/h (1 Bft) 97,87 %
07.05.2021 07:12 4,3 C 3,9 C 2,8 C 97 % 1010,7 hPa 0,0 l/m 0 min 0 min 12 W/m 0,0 km/h (0 Bft) 98,00 %
07.05.2021 07:14 4,3 C 3,9 C 2,8 C 97 % 1010,7 hPa 0,0 l/m 0 min 0 min 12 W/m 6,4 km/h (2 Bft) 97,37 %
07.05.2021 07:16 4,3 C 3,9 C 2,8 C 97 % 1010,7 hPa 0,0 l/m 0 min 2 min 11 W/m 0,0 km/h (0 Bft) 94,00 %
07.05.2021 07:18 4,3 C 3,9 C 2,8 C 97 % 1010,7 hPa 0,0 l/m 0 min 2 min 9 W/m 3,2 km/h (1 Bft) 97,87 %
07.05.2021 07:20 4,3 C 3,9 C 2,8 C 97 % 1010,7 hPa 0,0 l/m 0 min 2 min 7 W/m 0,0 km/h (0 Bft) 97,83 %
07.05.2021 07:22 4,4 C 3,9 C 2,8 C 97 % 1010,6 hPa 0,0 l/m 0 min 2 min 7 W/m 0,0 km/h (0 Bft) 95,74 %
07.05.2021 07:24 4,4 C 3,9 C 2,8 C 97 % 1010,7 hPa 0,0 l/m 0 min 2 min 5 W/m 3,2 km/h (1 Bft) 97,87 %
07.05.2021 07:26 4,4 C 3,9 C 2,8 C 98 % 1010,8 hPa 0,2 l/m 0 min 2 min 5 W/m 3,2 km/h (1 Bft) 97,73 %
07.05.2021 07:28 4,4 C 3,9 C 2,8 C 98 % 1010,9 hPa 0,0 l/m 0 min 2 min 4 W/m 3,2 km/h (1 Bft) 97,87 %
07.05.2021 07:30 4,5 C 3,9 C 2,8 C 98 % 1011,0 hPa 0,2 l/m 0 min 2 min 0 W/m 22,5 km/h (4 Bft) 98,00 %
07.05.2021 07:32 4,4 C 3,9 C 2,8 C 98 % 1010,9 hPa 0,0 l/m 0 min 2 min 5 W/m 19,3 km/h (3 Bft) 92,31 %
07.05.2021 07:34 4,3 C 3,3 C 2,3 C 97 % 1011,0 hPa 0,4 l/m 0 min 2 min 5 W/m 6,4 km/h (2 Bft) 100,00 %
07.05.2021 07:36 4,1 C 3,3 C 2,3 C 97 % 1011,0 hPa 0,4 l/m 0 min 2 min 6 W/m 6,4 km/h (2 Bft) 96,00 %
07.05.2021 07:38 4,0 C 3,3 C 2,3 C 97 % 1010,9 hPa 0,2 l/m 0 min 2 min 15 W/m 9,7 km/h (2 Bft) 95,74 %
07.05.2021 07:40 4,0 C 3,3 C 2,3 C 97 % 1010,9 hPa 0,0 l/m 0 min 2 min 26 W/m 6,4 km/h (2 Bft) 95,74 %
07.05.2021 07:42 4,0 C 3,3 C 2,3 C 97 % 1010,9 hPa 0,0 l/m 0 min 2 min 30 W/m 3,2 km/h (1 Bft) 90,48 %
07.05.2021 07:44 4,0 C 3,3 C 2,3 C 97 % 1010,9 hPa 0,0 l/m 0 min 2 min 35 W/m 3,2 km/h (1 Bft) 94,12 %
07.05.2021 07:46 4,0 C 3,3 C 2,3 C 97 % 1010,9 hPa 0,0 l/m 0 min 2 min 44 W/m 6,4 km/h (2 Bft) 95,45 %
07.05.2021 07:48 4,0 C 3,3 C 2,3 C 97 % 1010,9 hPa 0,0 l/m 0 min 2 min 44 W/m 3,2 km/h (1 Bft) 95,74 %
07.05.2021 07:50 4,0 C 3,3 C 2,3 C 97 % 1010,8 hPa 0,0 l/m 0 min 2 min 50 W/m 3,2 km/h (1 Bft) 96,00 %
07.05.2021 07:52 4,0 C 3,3 C 2,3 C 97 % 1010,8 hPa 0,0 l/m 0 min 2 min 57 W/m 3,2 km/h (1 Bft) 93,62 %
07.05.2021 07:54 4,1 C 3,9 C 2,3 C 97 % 1010,9 hPa 0,0 l/m 0 min 2 min 56 W/m 3,2 km/h (1 Bft) 95,74 %
07.05.2021 07:56 4,1 C 3,3 C 2,3 C 97 % 1010,8 hPa 0,0 l/m 0 min 2 min 50 W/m 0,0 km/h (0 Bft) 93,02 %
07.05.2021 07:58 4,1 C 3,9 C 2,3 C 97 % 1010,8 hPa 0,2 l/m 0 min 2 min 45 W/m 0,0 km/h (0 Bft) 96,00 %
07.05.2021 08:00 4,1 C 3,9 C 2,3 C 97 % 1010,8 hPa 0,0 l/m 0 min 0 min 36 W/m 0,0 km/h (0 Bft) 95,74 %
07.05.2021 08:02 4,1 C 3,9 C 2,3 C 97 % 1010,8 hPa 0,0 l/m 0 min 2 min 22 W/m 0,0 km/h (0 Bft) 95,74 %
07.05.2021 08:04 4,1 C 3,9 C 2,8 C 97 % 1010,8 hPa 0,0 l/m 0 min 2 min 21 W/m 0,0 km/h (0 Bft) 95,74 %
07.05.2021 08:06 4,1 C 3,9 C 2,8 C 97 % 1010,7 hPa 0,0 l/m 0 min 2 min 36 W/m 0,0 km/h (0 Bft) 95,45 %
07.05.2021 08:08 4,2 C 3,9 C 2,8 C 97 % 1010,7 hPa 0,0 l/m 0 min 0 min 52 W/m 0,0 km/h (0 Bft) 97,96 %
07.05.2021 08:10 4,2 C 3,9 C 2,8 C 97 % 1010,8 hPa 0,0 l/m 0 min 0 min 69 W/m 0,0 km/h (0 Bft) 93,62 %
07.05.2021 08:12 4,2 C 3,9 C 2,8 C 97 % 1010,8 hPa 0,0 l/m 0 min 0 min 81 W/m 0,0 km/h (0 Bft) 95,74 %
07.05.2021 08:14 4,2 C 3,9 C 2,8 C 97 % 1010,7 hPa 0,0 l/m 0 min 0 min 91 W/m 0,0 km/h (0 Bft) 95,45 %
07.05.2021 08:16 4,2 C 3,9 C 2,8 C 97 % 1010,8 hPa 0,0 l/m 0 min 0 min 92 W/m 0,0 km/h (0 Bft) 98,00 %
07.05.2021 08:18 4,2 C 3,9 C 2,8 C 97 % 1010,8 hPa 0,0 l/m 0 min 0 min 69 W/m 0,0 km/h (0 Bft) 97,83 %
07.05.2021 08:20 4,3 C 3,9 C 2,8 C 97 % 1010,8 hPa 0,0 l/m 0 min 0 min 43 W/m 0,0 km/h (0 Bft) 97,73 %
07.05.2021 08:22 4,3 C 3,9 C 2,8 C 97 % 1010,9 hPa 0,0 l/m 0 min 0 min 26 W/m 0,0 km/h (0 Bft) 64,00 %
07.05.2021 08:24 4,3 C 3,9 C 2,8 C 97 % 1011,1 hPa 0,0 l/m 0 min 2 min 18 W/m 6,4 km/h (2 Bft) 78,72 %
07.05.2021 08:26 4,3 C 3,9 C 2,8 C 97 % 1011,1 hPa 0,0 l/m 0 min 2 min 14 W/m 6,4 km/h (2 Bft) 84,09 %
07.05.2021 08:28 4,3 C 3,9 C 2,8 C 97 % 1011,2 hPa 0,2 l/m 0 min 2 min 10 W/m 19,3 km/h (3 Bft) 100,00 %
07.05.2021 08:30 4,2 C 3,9 C 2,8 C 97 % 1011,2 hPa 0,0 l/m 0 min 2 min 5 W/m 16,1 km/h (3 Bft) 100,00 %
07.05.2021 08:32 4,1 C 3,3 C 2,3 C 97 % 1011,3 hPa 0,2 l/m 0 min 2 min 0 W/m 12,9 km/h (3 Bft) 98,11 %
07.05.2021 08:34 4,1 C 3,3 C 2,3 C 97 % 1011,4 hPa 0,0 l/m 0 min 2 min 0 W/m 16,1 km/h (3 Bft) 100,00 %
07.05.2021 08:36 4,0 C 2,8 C 2,3 C 97 % 1011,4 hPa 0,0 l/m 0 min 2 min 3 W/m 12,9 km/h (3 Bft) 100,00 %
07.05.2021 08:38 3,9 C 2,8 C 1,7 C 97 % 1011,5 hPa 0,0 l/m 0 min 2 min 5 W/m 22,5 km/h (4 Bft) 100,00 %
07.05.2021 08:40 3,8 C 2,8 C 1,7 C 97 % 1011,5 hPa 0,2 l/m 0 min 2 min 7 W/m 16,1 km/h (3 Bft) 100,00 %
07.05.2021 08:42 3,6 C 2,8 C 1,7 C 97 % 1011,6 hPa 0,2 l/m 0 min 2 min 11 W/m 16,1 km/h (3 Bft) 100,00 %
07.05.2021 08:44 3,5 C 2,2 C 1,7 C 97 % 1011,6 hPa 0,2 l/m 0 min 2 min 14 W/m 12,9 km/h (3 Bft) 100,00 %
07.05.2021 08:46 3,4 C 2,2 C 1,7 C 97 % 1011,6 hPa 0,2 l/m 0 min 2 min 21 W/m 6,4 km/h (2 Bft) 100,00 %
07.05.2021 08:48 3,3 C 2,2 C 1,7 C 97 % 1011,7 hPa 0,2 l/m 0 min 2 min 26 W/m 16,1 km/h (3 Bft) 100,00 %
07.05.2021 08:50 3,3 C 2,2 C 1,7 C 97 % 1011,8 hPa 0,0 l/m 0 min 2 min 23 W/m 9,7 km/h (2 Bft) 100,00 %
07.05.2021 08:52 3,1 C 2,2 C 1,7 C 97 % 1011,8 hPa 0,2 l/m 0 min 2 min 18 W/m 9,7 km/h (2 Bft) 100,00 %
07.05.2021 08:54 3,1 C 2,2 C 1,1 C 97 % 1011,8 hPa 0,0 l/m 0 min 2 min 18 W/m 6,4 km/h (2 Bft) 100,00 %
07.05.2021 08:56 3,0 C 2,2 C 1,7 C 97 % 1011,9 hPa 0,0 l/m 0 min 2 min 22 W/m 9,7 km/h (2 Bft) 100,00 %
07.05.2021 08:58 3,0 C 2,2 C 1,7 C 97 % 1011,8 hPa 0,2 l/m 0 min 2 min 25 W/m 9,7 km/h (2 Bft) 100,00 %
07.05.2021 09:00 3,0 C 2,2 C 1,7 C 97 % 1011,9 hPa 0,0 l/m 0 min 2 min 20 W/m 9,7 km/h (2 Bft) 100,00 %
07.05.2021 09:02 3,0 C 2,2 C 1,7 C 97 % 1011,9 hPa 0,0 l/m 0 min 2 min 24 W/m 6,4 km/h (2 Bft) 98,08 %
07.05.2021 09:04 3,0 C 2,8 C 1,7 C 97 % 1012,0 hPa 0,0 l/m 0 min 0 min 38 W/m 6,4 km/h (2 Bft) 97,56 %
07.05.2021 09:06 3,0 C 2,8 C 1,7 C 97 % 1011,9 hPa 0,0 l/m 0 min 0 min 39 W/m 12,9 km/h (3 Bft) 97,87 %
07.05.2021 09:08 3,0 C 2,8 C 1,7 C 97 % 1011,9 hPa 0,0 l/m 0 min 0 min 51 W/m 3,2 km/h (1 Bft) 100,00 %
07.05.2021 09:10 3,0 C 2,8 C 1,7 C 97 % 1012,0 hPa 0,0 l/m 0 min 0 min 60 W/m 9,7 km/h (2 Bft) 100,00 %
07.05.2021 09:12 3,0 C 2,8 C 1,7 C 97 % 1012,0 hPa 0,0 l/m 0 min 0 min 60 W/m 6,4 km/h (2 Bft) 100,00 %
07.05.2021 09:14 3,1 C 2,8 C 1,7 C 97 % 1012,1 hPa 0,0 l/m 0 min 0 min 59 W/m 12,9 km/h (3 Bft) 100,00 %
07.05.2021 09:16 3,1 C 2,8 C 1,7 C 97 % 1012,1 hPa 0,0 l/m 0 min 0 min 61 W/m 6,4 km/h (2 Bft) 100,00 %
07.05.2021 09:18 3,1 C 2,8 C 2,3 C 97 % 1012,1 hPa 0,0 l/m 0 min 0 min 67 W/m 6,4 km/h (2 Bft) 100,00 %
07.05.2021 09:20 3,1 C 2,8 C 2,3 C 97 % 1012,1 hPa 0,0 l/m 0 min 0 min 73 W/m 6,4 km/h (2 Bft) 80,85 %
07.05.2021 09:22 3,1 C 2,8 C 2,3 C 97 % 1012,2 hPa 0,0 l/m 0 min 0 min 64 W/m 12,9 km/h (3 Bft) 69,57 %
07.05.2021 09:24 3,1 C 2,8 C 1,7 C 97 % 1012,2 hPa 0,0 l/m 0 min 0 min 50 W/m 12,9 km/h (3 Bft) 100,00 %
07.05.2021 09:26 3,1 C 2,8 C 1,7 C 97 % 1012,3 hPa 0,0 l/m 0 min 0 min 42 W/m 9,7 km/h (2 Bft) 100,00 %
07.05.2021 09:28 3,1 C 2,8 C 1,7 C 97 % 1012,4 hPa 0,0 l/m 0 min 2 min 37 W/m 9,7 km/h (2 Bft) 100,00 %
07.05.2021 09:30 3,1 C 2,8 C 1,7 C 97 % 1012,4 hPa 0,0 l/m 0 min 0 min 34 W/m 9,7 km/h (2 Bft) 97,87 %
07.05.2021 09:32 3,1 C 2,8 C 1,7 C 97 % 1012,5 hPa 0,0 l/m 0 min 0 min 40 W/m 16,1 km/h (3 Bft) 100,00 %
07.05.2021 09:34 3,1 C 2,8 C 1,7 C 97 % 1012,5 hPa 0,0 l/m 0 min 0 min 45 W/m 9,7 km/h (2 Bft) 100,00 %
07.05.2021 09:36 3,1 C 2,8 C 1,7 C 97 % 1012,5 hPa 0,0 l/m 0 min 0 min 56 W/m 6,4 km/h (2 Bft) 100,00 %
07.05.2021 09:38 3,1 C 2,8 C 2,3 C 97 % 1012,6 hPa 0,0 l/m 0 min 0 min 68 W/m 12,9 km/h (3 Bft) 100,00 %
07.05.2021 09:40 3,1 C 2,8 C 2,3 C 97 % 1012,6 hPa 0,0 l/m 0 min 0 min 70 W/m 9,7 km/h (2 Bft) 97,87 %
07.05.2021 09:42 3,2 C 2,8 C 2,3 C 97 % 1012,7 hPa 0,0 l/m 0 min 0 min 81 W/m 12,9 km/h (3 Bft) 100,00 %
07.05.2021 09:44 3,2 C 2,8 C 2,3 C 97 % 1012,7 hPa 0,0 l/m 0 min 0 min 87 W/m 9,7 km/h (2 Bft) 100,00 %
07.05.2021 09:46 3,2 C 3,3 C 2,3 C 97 % 1012,8 hPa 0,0 l/m 0 min 0 min 95 W/m 12,9 km/h (3 Bft) 100,00 %
07.05.2021 09:48 3,2 C 3,3 C 2,3 C 97 % 1012,9 hPa 0,0 l/m 0 min 0 min 125 W/m 12,9 km/h (3 Bft) 100,00 %
07.05.2021 09:50 3,2 C 3,3 C 2,3 C 97 % 1012,9 hPa 0,0 l/m 0 min 2 min 165 W/m 12,9 km/h (3 Bft) 100,00 %
07.05.2021 09:52 3,3 C 3,9 C 2,3 C 97 % 1012,9 hPa 0,2 l/m 0 min 0 min 191 W/m 6,4 km/h (2 Bft) 100,00 %
07.05.2021 09:54 3,3 C 3,9 C 2,8 C 97 % 1012,9 hPa 0,0 l/m 0 min 0 min 193 W/m 12,9 km/h (3 Bft) 100,00 %
07.05.2021 09:56 3,4 C 4,4 C 2,8 C 97 % 1012,9 hPa 0,0 l/m 0 min 0 min 238 W/m 6,4 km/h (2 Bft) 97,87 %
07.05.2021 09:58 3,5 C 5,0 C 3,4 C 97 % 1012,9 hPa 0,0 l/m 2 min 0 min 380 W/m 9,7 km/h (2 Bft) 100,00 %
07.05.2021 10:00 3,6 C 5,6 C 4,5 C 97 % 1012,9 hPa 0,0 l/m 2 min 0 min 385 W/m 9,7 km/h (2 Bft) 97,87 %
07.05.2021 10:02 3,8 C 7,2 C 5,0 C 97 % 1012,9 hPa 0,0 l/m 2 min 0 min 503 W/m 9,7 km/h (2 Bft) 100,00 %
07.05.2021 10:04 4,0 C 8,3 C 5,6 C 98 % 1013,0 hPa 0,0 l/m 2 min 0 min 531 W/m 6,4 km/h (2 Bft) 100,00 %
07.05.2021 10:06 4,3 C 8,3 C 5,6 C 98 % 1013,0 hPa 0,0 l/m 2 min 0 min 379 W/m 3,2 km/h (1 Bft) 97,87 %
07.05.2021 10:08 4,5 C 8,3 C 5,6 C 98 % 1013,0 hPa 0,0 l/m 0 min 0 min 166 W/m 9,7 km/h (2 Bft) 98,15 %
07.05.2021 10:10 4,6 C 9,4 C 6,1 C 98 % 1013,1 hPa 0,0 l/m 2 min 0 min 630 W/m 9,7 km/h (2 Bft) 95,74 %
07.05.2021 10:12 4,8 C 8,9 C 6,7 C 98 % 1013,2 hPa 0,0 l/m 2 min 0 min 652 W/m 6,4 km/h (2 Bft) 97,83 %
07.05.2021 10:14 4,9 C 10,0 C 7,3 C 98 % 1013,2 hPa 0,0 l/m 2 min 0 min 730 W/m 12,9 km/h (3 Bft) 97,87 %
07.05.2021 10:16 5,1 C 10,0 C 7,8 C 98 % 1013,3 hPa 0,0 l/m 2 min 0 min 762 W/m 9,7 km/h (2 Bft) 97,87 %
07.05.2021 10:18 5,2 C 10,0 C 7,3 C 98 % 1013,3 hPa 0,0 l/m 2 min 0 min 667 W/m 9,7 km/h (2 Bft) 95,74 %
07.05.2021 10:20 5,3 C 10,0 C 7,8 C 98 % 1013,3 hPa 0,0 l/m 2 min 0 min 628 W/m 9,7 km/h (2 Bft) 95,74 %
07.05.2021 10:22 5,3 C 10,0 C 6,1 C 98 % 1013,3 hPa 0,0 l/m 2 min 0 min 640 W/m 9,7 km/h (2 Bft) 95,74 %
07.05.2021 10:24 5,4 C 8,9 C 5,6 C 98 % 1013,2 hPa 0,0 l/m 0 min 0 min 210 W/m 9,7 km/h (2 Bft) 48,78 %
07.05.2021 10:26 5,4 C 8,9 C 6,1 C 98 % 1013,3 hPa 0,0 l/m 0 min 0 min 229 W/m 9,7 km/h (2 Bft) 91,49 %
07.05.2021 10:28 5,4 C 9,4 C 6,7 C 98 % 1013,4 hPa 0,0 l/m 2 min 0 min 346 W/m 9,7 km/h (2 Bft) 93,62 %
07.05.2021 10:30 5,5 C 10,0 C 8,4 C 98 % 1013,5 hPa 0,0 l/m 2 min 0 min 614 W/m 19,3 km/h (3 Bft) 93,62 %
07.05.2021 10:32 5,5 C 10,0 C 8,9 C 98 % 1013,5 hPa 0,0 l/m 2 min 0 min 746 W/m 16,1 km/h (3 Bft) 95,74 %
07.05.2021 10:34 5,6 C 10,6 C 7,3 C 98 % 1013,5 hPa 0,0 l/m 2 min 0 min 747 W/m 12,9 km/h (3 Bft) 91,49 %
07.05.2021 10:36 5,6 C 9,4 C 6,7 C 97 % 1013,7 hPa 0,0 l/m 2 min 0 min 356 W/m 19,3 km/h (3 Bft) 93,48 %
07.05.2021 10:38 5,7 C 8,9 C 6,7 C 97 % 1013,7 hPa 0,0 l/m 2 min 0 min 326 W/m 12,9 km/h (3 Bft) 93,62 %
07.05.2021 10:40 5,7 C 8,9 C 6,1 C 97 % 1013,8 hPa 0,0 l/m 2 min 0 min 376 W/m 19,3 km/h (3 Bft) 93,62 %
07.05.2021 10:42 5,8 C 8,9 C 6,1 C 97 % 1013,8 hPa 0,0 l/m 2 min 0 min 376 W/m 16,1 km/h (3 Bft) 91,49 %
07.05.2021 10:44 5,8 C 7,8 C 5,6 C 97 % 1013,9 hPa 0,0 l/m 0 min 0 min 277 W/m 25,7 km/h (4 Bft) 93,62 %
07.05.2021 10:46 5,8 C 7,2 C 5,0 C 97 % 1014,0 hPa 0,0 l/m 2 min 2 min 333 W/m 19,3 km/h (3 Bft) 93,62 %
07.05.2021 10:48 5,7 C 6,7 C 4,5 C 97 % 1014,1 hPa 0,0 l/m 0 min 0 min 262 W/m 22,5 km/h (4 Bft) 95,65 %
07.05.2021 10:50 5,6 C 6,7 C 4,5 C 96 % 1014,1 hPa 0,0 l/m 0 min 0 min 279 W/m 19,3 km/h (3 Bft) 91,49 %
07.05.2021 10:52 5,6 C 6,7 C 5,0 C 96 % 1014,1 hPa 0,0 l/m 0 min 0 min 323 W/m 16,1 km/h (3 Bft) 91,49 %
07.05.2021 10:54 5,6 C 7,2 C 5,0 C 96 % 1014,1 hPa 0,0 l/m 0 min 0 min 323 W/m 19,3 km/h (3 Bft) 93,62 %
07.05.2021 10:56 5,6 C 7,2 C 5,0 C 96 % 1014,2 hPa 0,0 l/m 0 min 0 min 268 W/m 22,5 km/h (4 Bft) 93,62 %
07.05.2021 10:58 5,6 C 7,8 C 6,7 C 96 % 1014,2 hPa 0,0 l/m 0 min 0 min 262 W/m 16,1 km/h (3 Bft) 93,62 %
07.05.2021 11:00 5,8 C 7,8 C 6,7 C 96 % 1014,3 hPa 0,0 l/m 0 min 0 min 248 W/m 19,3 km/h (3 Bft) 91,30 %
07.05.2021 11:02 5,9 C 8,9 C 7,3 C 95 % 1014,4 hPa 0,0 l/m 2 min 0 min 662 W/m 19,3 km/h (3 Bft) 93,62 %
07.05.2021 11:04 6,0 C 9,4 C 7,3 C 95 % 1014,3 hPa 0,0 l/m 2 min 0 min 710 W/m 16,1 km/h (3 Bft) 93,62 %
07.05.2021 11:06 6,2 C 9,4 C 6,7 C 95 % 1014,4 hPa 0,0 l/m 2 min 0 min 460 W/m 12,9 km/h (3 Bft) 93,62 %
07.05.2021 11:08 6,4 C 9,4 C 7,3 C 95 % 1014,4 hPa 0,0 l/m 2 min 0 min 678 W/m 9,7 km/h (2 Bft) 93,62 %
07.05.2021 11:10 6,5 C 8,9 C 7,3 C 95 % 1014,3 hPa 0,0 l/m 2 min 0 min 719 W/m 12,9 km/h (3 Bft) 93,62 %
07.05.2021 11:12 6,6 C 8,9 C 6,7 C 95 % 1014,4 hPa 0,0 l/m 2 min 0 min 425 W/m 12,9 km/h (3 Bft) 95,65 %
07.05.2021 11:14 6,7 C 8,9 C 6,1 C 94 % 1014,4 hPa 0,0 l/m 2 min 0 min 485 W/m 22,5 km/h (4 Bft) 93,62 %
07.05.2021 11:16 6,6 C 7,8 C 5,6 C 94 % 1014,5 hPa 0,0 l/m 2 min 0 min 499 W/m 16,1 km/h (3 Bft) 89,36 %
07.05.2021 11:18 6,6 C 7,8 C 5,6 C 93 % 1014,6 hPa 0,0 l/m 0 min 0 min 298 W/m 16,1 km/h (3 Bft) 93,62 %
07.05.2021 11:20 6,6 C 8,3 C 6,1 C 92 % 1014,6 hPa 0,0 l/m 0 min 0 min 252 W/m 16,1 km/h (3 Bft) 93,62 %
07.05.2021 11:22 6,8 C 8,9 C 6,1 C 92 % 1014,7 hPa 0,0 l/m 2 min 0 min 733 W/m 16,1 km/h (3 Bft) 89,13 %
07.05.2021 11:24 6,8 C 8,9 C 6,1 C 91 % 1014,7 hPa 0,0 l/m 2 min 0 min 446 W/m 16,1 km/h (3 Bft) 95,74 %
07.05.2021 11:26 6,9 C 8,9 C 6,1 C 91 % 1014,7 hPa 0,0 l/m 0 min 0 min 310 W/m 19,3 km/h (3 Bft) 93,62 %
07.05.2021 11:28 6,9 C 8,3 C 5,6 C 90 % 1014,8 hPa 0,0 l/m 0 min 0 min 248 W/m 9,7 km/h (2 Bft) 93,62 %
07.05.2021 11:30 7,0 C 8,3 C 5,6 C 90 % 1014,8 hPa 0,0 l/m 0 min 0 min 197 W/m 16,1 km/h (3 Bft) 95,74 %
07.05.2021 11:32 7,1 C 9,4 C 6,1 C 90 % 1014,9 hPa 0,0 l/m 0 min 0 min 206 W/m 22,5 km/h (4 Bft) 95,74 %
07.05.2021 11:34 7,3 C 9,4 C 6,7 C 90 % 1014,9 hPa 0,0 l/m 0 min 0 min 206 W/m 12,9 km/h (3 Bft) 95,65 %
07.05.2021 11:36 7,3 C 8,9 C 6,1 C 89 % 1014,9 hPa 0,0 l/m 0 min 0 min 229 W/m 12,9 km/h (3 Bft) 95,74 %
07.05.2021 11:38 7,2 C 8,3 C 5,6 C 88 % 1015,0 hPa 0,0 l/m 0 min 0 min 162 W/m 25,7 km/h (4 Bft) 95,74 %
07.05.2021 11:40 7,2 C 8,9 C 6,1 C 87 % 1015,0 hPa 0,0 l/m 2 min 0 min 390 W/m 12,9 km/h (3 Bft) 95,74 %
07.05.2021 11:42 7,3 C 10,6 C 6,7 C 87 % 1015,0 hPa 0,0 l/m 2 min 0 min 978 W/m 12,9 km/h (3 Bft) 95,74 %
07.05.2021 11:44 7,5 C 11,1 C 7,3 C 87 % 1015,0 hPa 0,0 l/m 2 min 0 min 765 W/m 12,9 km/h (3 Bft) 97,87 %
07.05.2021 11:46 7,7 C 10,6 C 6,7 C 87 % 1015,1 hPa 0,0 l/m 2 min 0 min 852 W/m 22,5 km/h (4 Bft) 97,83 %
07.05.2021 11:48 7,7 C 10,0 C 6,7 C 85 % 1015,2 hPa 0,0 l/m 0 min 0 min 229 W/m 12,9 km/h (3 Bft) 97,87 %
07.05.2021 11:50 7,8 C 10,0 C 7,3 C 85 % 1015,2 hPa 0,0 l/m 2 min 0 min 405 W/m 12,9 km/h (3 Bft) 95,74 %
07.05.2021 11:52 7,9 C 11,1 C 8,4 C 85 % 1015,2 hPa 0,0 l/m 2 min 0 min 972 W/m 9,7 km/h (2 Bft) 97,87 %
07.05.2021 11:54 8,1 C 11,1 C 8,4 C 86 % 1015,3 hPa 0,0 l/m 2 min 0 min 1045 W/m 16,1 km/h (3 Bft) 97,87 %
07.05.2021 11:56 8,1 C 10,0 C 7,3 C 84 % 1015,3 hPa 0,0 l/m 2 min 0 min 573 W/m 19,3 km/h (3 Bft) 97,83 %
07.05.2021 11:58 8,0 C 9,4 C 6,1 C 82 % 1015,5 hPa 0,0 l/m 0 min 0 min 206 W/m 12,9 km/h (3 Bft) 95,74 %
07.05.2021 12:00 8,0 C 10,0 C 9,5 C 81 % 1015,4 hPa 0,0 l/m 2 min 0 min 627 W/m 12,9 km/h (3 Bft) 95,74 %
07.05.2021 12:02 8,1 C 11,1 C 9,5 C 81 % 1015,5 hPa 0,0 l/m 2 min 0 min 920 W/m 16,1 km/h (3 Bft) 97,87 %
07.05.2021 12:04 8,3 C 11,7 C 10,6 C 82 % 1015,6 hPa 0,0 l/m 2 min 0 min 587 W/m 22,5 km/h (4 Bft) 97,87 %
07.05.2021 12:08 8,5 C 11,7 C 12,3 C 79 % 1015,5 hPa 0,0 l/m 4 min 0 min 1063 W/m 19,3 km/h (3 Bft) 97,85 %
07.05.2021 12:10 8,6 C 11,7 C 11,1 C 79 % 1015,6 hPa 0,0 l/m 2 min 0 min 1025 W/m 12,9 km/h (3 Bft) 95,74 %
07.05.2021 12:12 8,8 C 12,2 C 13,4 C 79 % 1015,6 hPa 0,0 l/m 2 min 0 min 1067 W/m 25,7 km/h (4 Bft) 100,00 %
07.05.2021 12:14 8,9 C 12,2 C 14,5 C 78 % 1015,7 hPa 0,0 l/m 2 min 0 min 1058 W/m 25,7 km/h (4 Bft) 100,00 %
07.05.2021 12:16 9,0 C 11,7 C 14,5 C 75 % 1015,7 hPa 0,0 l/m 2 min 0 min 1053 W/m 22,5 km/h (4 Bft) 100,00 %
07.05.2021 12:18 9,0 C 12,2 C 15,6 C 75 % 1015,8 hPa 0,0 l/m 2 min 0 min 1038 W/m 12,9 km/h (3 Bft) 100,00 %
07.05.2021 12:20 9,2 C 12,8 C 16,1 C 75 % 1015,7 hPa 0,0 l/m 2 min 0 min 1019 W/m 16,1 km/h (3 Bft) 97,87 %
07.05.2021 12:22 9,4 C 13,3 C 17,8 C 76 % 1015,8 hPa 0,0 l/m 2 min 0 min 1040 W/m 22,5 km/h (4 Bft) 100,00 %
07.05.2021 12:24 9,6 C 12,8 C 15,6 C 75 % 1015,8 hPa 0,0 l/m 2 min 0 min 1029 W/m 16,1 km/h (3 Bft) 100,00 %
07.05.2021 12:26 9,6 C 11,7 C 13,4 C 74 % 1015,8 hPa 0,0 l/m 0 min 0 min 277 W/m 19,3 km/h (3 Bft) 100,00 %
07.05.2021 12:28 9,8 C 12,2 C 13,9 C 74 % 1015,8 hPa 0,0 l/m 0 min 0 min 292 W/m 19,3 km/h (3 Bft) 100,00 %
07.05.2021 12:30 9,9 C 12,8 C 16,1 C 74 % 1015,8 hPa 0,0 l/m 2 min 0 min 1012 W/m 16,1 km/h (3 Bft) 97,87 %
07.05.2021 12:32 10,1 C 12,8 C 16,1 C 74 % 1015,8 hPa 0,0 l/m 2 min 0 min 1081 W/m 19,3 km/h (3 Bft) 100,00 %
07.05.2021 12:34 10,2 C 12,2 C 13,9 C 73 % 1015,8 hPa 0,0 l/m 0 min 0 min 393 W/m 9,7 km/h (2 Bft) 95,74 %
07.05.2021 12:36 10,3 C 12,2 C 12,8 C 73 % 1015,9 hPa 0,0 l/m 0 min 0 min 235 W/m 9,7 km/h (2 Bft) 95,65 %
07.05.2021 12:38 10,3 C 12,2 C 15,0 C 72 % 1015,9 hPa 0,0 l/m 2 min 0 min 811 W/m 19,3 km/h (3 Bft) 97,92 %
07.05.2021 12:40 10,4 C 12,2 C 16,1 C 73 % 1015,9 hPa 0,0 l/m 2 min 0 min 1039 W/m 12,9 km/h (3 Bft) 97,87 %
07.05.2021 12:42 10,4 C 12,8 C 16,7 C 72 % 1015,9 hPa 0,0 l/m 2 min 0 min 1104 W/m 19,3 km/h (3 Bft) 100,00 %
07.05.2021 12:44 10,5 C 12,8 C 17,3 C 72 % 1015,9 hPa 0,0 l/m 2 min 0 min 1104 W/m 16,1 km/h (3 Bft) 100,00 %
07.05.2021 12:46 10,5 C 12,2 C 15,6 C 70 % 1015,9 hPa 0,0 l/m 2 min 0 min 803 W/m 16,1 km/h (3 Bft) 100,00 %
07.05.2021 12:48 10,6 C 12,8 C 16,7 C 70 % 1016,0 hPa 0,0 l/m 2 min 0 min 777 W/m 29,0 km/h (5 Bft) 100,00 %
07.05.2021 12:50 10,7 C 13,3 C 18,4 C 70 % 1016,0 hPa 0,0 l/m 2 min 0 min 1112 W/m 25,7 km/h (4 Bft) 100,00 %
07.05.2021 12:52 10,9 C 13,9 C 18,9 C 69 % 1016,0 hPa 0,0 l/m 2 min 0 min 1091 W/m 16,1 km/h (3 Bft) 100,00 %
07.05.2021 12:54 11,0 C 13,3 C 16,1 C 70 % 1016,0 hPa 0,0 l/m 2 min 0 min 693 W/m 16,1 km/h (3 Bft) 100,00 %
07.05.2021 12:56 10,9 C 12,2 C 13,9 C 68 % 1016,0 hPa 0,0 l/m 0 min 0 min 323 W/m 6,4 km/h (2 Bft) 100,00 %
07.05.2021 12:58 10,8 C 11,7 C 12,3 C 69 % 1016,1 hPa 0,0 l/m 0 min 0 min 225 W/m 19,3 km/h (3 Bft) 100,00 %
07.05.2021 13:00 10,7 C 10,6 C 10,0 C 69 % 1016,1 hPa 0,0 l/m 0 min 0 min 155 W/m 19,3 km/h (3 Bft) 100,00 %
07.05.2021 13:02 10,5 C 10,6 C 11,1 C 70 % 1016,1 hPa 0,0 l/m 0 min 0 min 156 W/m 12,9 km/h (3 Bft) 100,00 %
07.05.2021 13:04 10,5 C 11,7 C 14,5 C 71 % 1016,2 hPa 0,0 l/m 2 min 0 min 873 W/m 16,1 km/h (3 Bft) 100,00 %
07.05.2021 13:06 10,6 C 12,2 C 16,7 C 71 % 1016,1 hPa 0,0 l/m 2 min 0 min 978 W/m 9,7 km/h (2 Bft) 100,00 %
07.05.2021 13:08 10,8 C 12,8 C 18,4 C 71 % 1016,2 hPa 0,0 l/m 2 min 0 min 974 W/m 12,9 km/h (3 Bft) 97,87 %
07.05.2021 13:10 11,0 C 13,3 C 19,5 C 69 % 1016,2 hPa 0,0 l/m 2 min 0 min 985 W/m 19,3 km/h (3 Bft) 97,87 %
07.05.2021 13:12 11,1 C 13,9 C 20,6 C 68 % 1016,2 hPa 0,0 l/m 2 min 0 min 1016 W/m 9,7 km/h (2 Bft) 95,65 %
07.05.2021 13:14 11,4 C 13,9 C 21,1 C 68 % 1016,3 hPa 0,0 l/m 2 min 0 min 1060 W/m 16,1 km/h (3 Bft) 97,87 %
07.05.2021 13:16 11,5 C 13,9 C 20,6 C 66 % 1016,3 hPa 0,0 l/m 2 min 0 min 1094 W/m 25,7 km/h (4 Bft) 97,87 %
07.05.2021 13:18 11,6 C 13,9 C 21,1 C 65 % 1016,3 hPa 0,0 l/m 2 min 0 min 1079 W/m 19,3 km/h (3 Bft) 97,87 %
07.05.2021 13:20 11,6 C 13,3 C 20,0 C 63 % 1016,3 hPa 0,0 l/m 2 min 0 min 1068 W/m 19,3 km/h (3 Bft) 97,87 %
07.05.2021 13:22 11,8 C 13,9 C 20,6 C 65 % 1016,4 hPa 0,0 l/m 2 min 0 min 1078 W/m 19,3 km/h (3 Bft) 95,65 %
07.05.2021 13:24 11,9 C 14,4 C 21,1 C 62 % 1016,3 hPa 0,0 l/m 2 min 0 min 1102 W/m 12,9 km/h (3 Bft) 95,74 %
07.05.2021 13:26 11,9 C 13,9 C 17,3 C 64 % 1016,3 hPa 0,0 l/m 2 min 0 min 472 W/m 16,1 km/h (3 Bft) 95,74 %
07.05.2021 13:28 11,7 C 12,2 C 13,9 C 63 % 1016,3 hPa 0,0 l/m 0 min 0 min 274 W/m 19,3 km/h (3 Bft) 97,87 %
07.05.2021 13:30 11,5 C 11,7 C 11,7 C 62 % 1016,3 hPa 0,0 l/m 0 min 0 min 209 W/m 22,5 km/h (4 Bft) 95,74 %
07.05.2021 13:32 11,3 C 11,7 C 10,6 C 64 % 1016,5 hPa 0,0 l/m 0 min 0 min 236 W/m 12,9 km/h (3 Bft) 97,92 %
07.05.2021 13:34 11,3 C 11,7 C 10,6 C 64 % 1016,4 hPa 0,0 l/m 0 min 0 min 324 W/m 12,9 km/h (3 Bft) 97,83 %
07.05.2021 13:36 11,2 C 12,2 C 12,3 C 64 % 1016,4 hPa 0,0 l/m 0 min 0 min 388 W/m 12,9 km/h (3 Bft) 97,87 %
07.05.2021 13:38 11,3 C 12,2 C 11,1 C 65 % 1016,5 hPa 0,0 l/m 0 min 0 min 349 W/m 16,1 km/h (3 Bft) 97,87 %
07.05.2021 13:40 11,2 C 11,7 C 10,6 C 64 % 1016,4 hPa 0,0 l/m 0 min 0 min 269 W/m 22,5 km/h (4 Bft) 95,74 %
07.05.2021 13:42 11,1 C 12,8 C 13,4 C 65 % 1016,5 hPa 0,0 l/m 2 min 0 min 784 W/m 19,3 km/h (3 Bft) 97,87 %
07.05.2021 13:44 11,4 C 13,9 C 13,9 C 66 % 1016,4 hPa 0,0 l/m 2 min 0 min 1079 W/m 9,7 km/h (2 Bft) 97,87 %
07.05.2021 13:46 11,6 C 14,4 C 13,9 C 66 % 1016,5 hPa 0,0 l/m 2 min 0 min 1078 W/m 19,3 km/h (3 Bft) 97,83 %
07.05.2021 13:48 11,7 C 15,6 C 13,9 C 63 % 1016,5 hPa 0,0 l/m 2 min 0 min 1070 W/m 16,1 km/h (3 Bft) 97,87 %
07.05.2021 13:50 11,9 C 15,6 C 13,4 C 64 % 1016,5 hPa 0,0 l/m 2 min 0 min 1082 W/m 19,3 km/h (3 Bft) 97,87 %
07.05.2021 13:52 12,0 C 14,4 C 12,8 C 62 % 1016,4 hPa 0,0 l/m 2 min 0 min 1018 W/m 12,9 km/h (3 Bft) 97,87 %
07.05.2021 13:54 12,1 C 13,9 C 11,7 C 62 % 1016,5 hPa 0,0 l/m 0 min 0 min 293 W/m 19,3 km/h (3 Bft) 97,87 %
07.05.2021 13:56 12,0 C 12,8 C 11,1 C 61 % 1016,5 hPa 0,0 l/m 0 min 0 min 248 W/m 12,9 km/h (3 Bft) 100,00 %
07.05.2021 13:58 12,0 C 13,9 C 11,1 C 62 % 1016,5 hPa 0,0 l/m 0 min 0 min 312 W/m 9,7 km/h (2 Bft) 100,00 %
07.05.2021 14:00 12,1 C 14,4 C 11,1 C 63 % 1016,5 hPa 0,0 l/m 2 min 0 min 995 W/m 16,1 km/h (3 Bft) 100,00 %
07.05.2021 14:02 12,2 C 14,4 C 10,6 C 63 % 1016,5 hPa 0,0 l/m 2 min 0 min 984 W/m 12,9 km/h (3 Bft) 100,00 %
07.05.2021 14:04 12,3 C 15,0 C 10,6 C 63 % 1016,5 hPa 0,0 l/m 2 min 0 min 1003 W/m 12,9 km/h (3 Bft) 97,87 %
07.05.2021 14:06 12,4 C 15,6 C 10,6 C 62 % 1016,5 hPa 0,0 l/m 2 min 0 min 1050 W/m 16,1 km/h (3 Bft) 100,00 %
07.05.2021 14:08 12,5 C 15,0 C 10,6 C 61 % 1016,5 hPa 0,0 l/m 2 min 0 min 1031 W/m 16,1 km/h (3 Bft) 100,00 %
07.05.2021 14:10 12,5 C 14,4 C 10,6 C 61 % 1016,5 hPa 0,0 l/m 2 min 0 min 638 W/m 12,9 km/h (3 Bft) 100,00 %
07.05.2021 14:12 12,5 C 13,9 C 10,6 C 60 % 1016,5 hPa 0,0 l/m 0 min 0 min 340 W/m 16,1 km/h (3 Bft) 97,87 %
07.05.2021 14:14 12,5 C 15,0 C 10,6 C 61 % 1016,5 hPa 0,0 l/m 2 min 0 min 687 W/m 16,1 km/h (3 Bft) 100,00 %
07.05.2021 14:16 12,5 C 13,9 C 10,6 C 61 % 1016,5 hPa 0,0 l/m 2 min 0 min 1028 W/m 32,2 km/h (5 Bft) 100,00 %
07.05.2021 14:18 12,5 C 13,3 C 10,0 C 62 % 1016,6 hPa 0,0 l/m 0 min 0 min 337 W/m 12,9 km/h (3 Bft) 100,00 %
07.05.2021 14:20 12,4 C 14,4 C 10,6 C 61 % 1016,5 hPa 0,0 l/m 0 min 0 min 323 W/m 12,9 km/h (3 Bft) 100,00 %
07.05.2021 14:22 12,5 C 15,0 C 11,1 C 63 % 1016,6 hPa 0,0 l/m 0 min 0 min 323 W/m 16,1 km/h (3 Bft) 97,83 %
07.05.2021 14:24 12,6 C 15,6 C 11,1 C 62 % 1016,6 hPa 0,0 l/m 2 min 0 min 545 W/m 12,9 km/h (3 Bft) 95,74 %
07.05.2021 14:26 12,8 C 15,6 C 11,1 C 62 % 1016,6 hPa 0,0 l/m 2 min 0 min 1046 W/m 12,9 km/h (3 Bft) 95,74 %
07.05.2021 14:28 12,9 C 15,6 C 11,1 C 61 % 1016,6 hPa 0,0 l/m 2 min 0 min 1039 W/m 12,9 km/h (3 Bft) 97,87 %
07.05.2021 14:30 13,0 C 16,1 C 11,1 C 62 % 1016,6 hPa 0,0 l/m 2 min 0 min 922 W/m 12,9 km/h (3 Bft) 93,62 %
07.05.2021 14:32 13,0 C 15,6 C 11,1 C 61 % 1016,7 hPa 0,0 l/m 2 min 0 min 909 W/m 22,5 km/h (4 Bft) 97,87 %
07.05.2021 14:34 13,0 C 15,6 C 10,6 C 61 % 1016,7 hPa 0,0 l/m 2 min 0 min 996 W/m 16,1 km/h (3 Bft) 97,87 %
07.05.2021 14:36 13,0 C 15,0 C 11,1 C 60 % 1016,7 hPa 0,0 l/m 2 min 0 min 972 W/m 16,1 km/h (3 Bft) 97,87 %
07.05.2021 14:38 13,0 C 13,9 C 10,6 C 61 % 1016,7 hPa 0,0 l/m 0 min 0 min 351 W/m 12,9 km/h (3 Bft) 97,87 %
07.05.2021 14:40 12,9 C 13,3 C 10,6 C 61 % 1016,7 hPa 0,0 l/m 0 min 0 min 250 W/m 12,9 km/h (3 Bft) 100,00 %
07.05.2021 14:42 12,8 C 12,8 C 10,0 C 61 % 1016,7 hPa 0,0 l/m 0 min 0 min 195 W/m 16,1 km/h (3 Bft) 97,87 %
07.05.2021 14:44 12,6 C 12,2 C 10,0 C 61 % 1016,7 hPa 0,0 l/m 0 min 0 min 190 W/m 22,5 km/h (4 Bft) 93,48 %
07.05.2021 14:46 12,4 C 11,7 C 9,5 C 61 % 1016,8 hPa 0,0 l/m 0 min 0 min 145 W/m 16,1 km/h (3 Bft) 97,87 %
07.05.2021 14:48 12,1 C 11,7 C 9,5 C 62 % 1016,8 hPa 0,0 l/m 0 min 0 min 136 W/m 16,1 km/h (3 Bft) 97,87 %
07.05.2021 14:50 11,9 C 11,1 C 8,9 C 63 % 1016,8 hPa 0,0 l/m 0 min 0 min 130 W/m 9,7 km/h (2 Bft) 97,87 %
07.05.2021 14:52 11,8 C 11,1 C 8,9 C 63 % 1016,9 hPa 0,0 l/m 0 min 0 min 124 W/m 16,1 km/h (3 Bft) 95,74 %
07.05.2021 14:54 11,6 C 11,1 C 8,9 C 64 % 1016,9 hPa 0,0 l/m 0 min 0 min 119 W/m 9,7 km/h (2 Bft) 97,87 %
07.05.2021 14:56 11,5 C 11,1 C 8,9 C 64 % 1016,9 hPa 0,0 l/m 0 min 0 min 124 W/m 9,7 km/h (2 Bft) 97,83 %
07.05.2021 14:58 11,4 C 10,6 C 8,4 C 65 % 1017,0 hPa 0,0 l/m 0 min 0 min 150 W/m 19,3 km/h (3 Bft) 97,87 %
07.05.2021 15:00 11,2 C 10,6 C 8,4 C 63 % 1017,0 hPa 0,0 l/m 0 min 0 min 171 W/m 9,7 km/h (2 Bft) 97,87 %
07.05.2021 15:02 11,1 C 10,6 C 8,4 C 63 % 1017,0 hPa 0,0 l/m 0 min 0 min 193 W/m 12,9 km/h (3 Bft) 97,87 %
07.05.2021 15:04 11,1 C 11,1 C 8,4 C 64 % 1017,0 hPa 0,0 l/m 0 min 0 min 195 W/m 16,1 km/h (3 Bft) 97,87 %
07.05.2021 15:06 11,0 C 10,6 C 8,4 C 65 % 1017,0 hPa 0,0 l/m 0 min 0 min 174 W/m 16,1 km/h (3 Bft) 97,87 %
07.05.2021 15:08 11,0 C 10,6 C 8,4 C 65 % 1017,0 hPa 0,0 l/m 0 min 0 min 145 W/m 16,1 km/h (3 Bft) 97,83 %
07.05.2021 15:10 11,0 C 10,6 C 8,4 C 66 % 1017,1 hPa 0,0 l/m 0 min 0 min 111 W/m 9,7 km/h (2 Bft) 97,87 %
07.05.2021 15:12 10,9 C 10,6 C 8,4 C 66 % 1017,0 hPa 0,0 l/m 0 min 0 min 108 W/m 12,9 km/h (3 Bft) 97,87 %
07.05.2021 15:14 10,9 C 10,6 C 7,8 C 66 % 1017,1 hPa 0,0 l/m 0 min 0 min 129 W/m 9,7 km/h (2 Bft) 97,87 %
07.05.2021 15:16 10,8 C 10,6 C 8,4 C 66 % 1017,1 hPa 0,0 l/m 0 min 0 min 154 W/m 6,4 km/h (2 Bft) 97,87 %
07.05.2021 15:18 10,8 C 10,6 C 8,4 C 67 % 1017,1 hPa 0,0 l/m 0 min 0 min 186 W/m 9,7 km/h (2 Bft) 100,00 %
07.05.2021 15:20 10,8 C 11,1 C 8,4 C 67 % 1017,1 hPa 0,0 l/m 0 min 0 min 251 W/m 16,1 km/h (3 Bft) 100,00 %
07.05.2021 15:22 10,9 C 11,7 C 8,4 C 67 % 1017,0 hPa 0,0 l/m 0 min 0 min 365 W/m 9,7 km/h (2 Bft) 100,00 %
07.05.2021 15:24 10,9 C 12,2 C 8,9 C 68 % 1017,0 hPa 0,0 l/m 2 min 0 min 441 W/m 6,4 km/h (2 Bft) 97,87 %
07.05.2021 15:26 11,1 C 12,2 C 9,5 C 67 % 1017,0 hPa 0,0 l/m 2 min 0 min 407 W/m 12,9 km/h (3 Bft) 100,00 %
07.05.2021 15:28 11,1 C 12,8 C 9,5 C 67 % 1017,0 hPa 0,0 l/m 2 min 0 min 385 W/m 9,7 km/h (2 Bft) 100,00 %
07.05.2021 15:30 11,3 C 12,8 C 9,5 C 67 % 1017,1 hPa 0,0 l/m 2 min 0 min 408 W/m 12,9 km/h (3 Bft) 97,83 %
07.05.2021 15:32 11,4 C 12,8 C 10,0 C 65 % 1017,0 hPa 0,0 l/m 2 min 0 min 397 W/m 12,9 km/h (3 Bft) 100,00 %
07.05.2021 15:34 11,5 C 12,8 C 10,0 C 64 % 1017,0 hPa 0,0 l/m 2 min 0 min 367 W/m 9,7 km/h (2 Bft) 97,87 %
07.05.2021 15:36 11,6 C 12,8 C 10,0 C 64 % 1017,0 hPa 0,0 l/m 0 min 0 min 259 W/m 9,7 km/h (2 Bft) 100,00 %
07.05.2021 15:38 11,6 C 12,2 C 10,0 C 65 % 1017,1 hPa 0,0 l/m 0 min 0 min 211 W/m 12,9 km/h (3 Bft) 100,00 %
07.05.2021 15:40 11,6 C 12,2 C 9,5 C 64 % 1017,1 hPa 0,0 l/m 0 min 0 min 193 W/m 16,1 km/h (3 Bft) 100,00 %
07.05.2021 15:42 11,7 C 11,7 C 9,5 C 64 % 1017,1 hPa 0,0 l/m 0 min 0 min 180 W/m 12,9 km/h (3 Bft) 97,83 %
07.05.2021 15:44 11,6 C 11,7 C 9,5 C 63 % 1017,1 hPa 0,0 l/m 0 min 0 min 160 W/m 12,9 km/h (3 Bft) 97,87 %
07.05.2021 15:46 11,5 C 11,1 C 8,9 C 63 % 1017,2 hPa 0,0 l/m 0 min 0 min 143 W/m 19,3 km/h (3 Bft) 97,87 %
07.05.2021 15:48 11,4 C 11,1 C 8,9 C 63 % 1017,2 hPa 0,0 l/m 0 min 0 min 129 W/m 12,9 km/h (3 Bft) 97,87 %
07.05.2021 15:50 11,4 C 11,1 C 8,9 C 63 % 1017,2 hPa 0,0 l/m 0 min 0 min 127 W/m 16,1 km/h (3 Bft) 95,74 %
07.05.2021 15:52 11,3 C 11,1 C 8,4 C 63 % 1017,3 hPa 0,0 l/m 0 min 0 min 149 W/m 9,7 km/h (2 Bft) 93,62 %
07.05.2021 15:54 11,3 C 11,1 C 8,4 C 64 % 1017,3 hPa 0,0 l/m 0 min 0 min 213 W/m 12,9 km/h (3 Bft) 97,83 %
07.05.2021 15:56 11,3 C 11,7 C 8,9 C 65 % 1017,3 hPa 0,0 l/m 0 min 0 min 300 W/m 12,9 km/h (3 Bft) 97,87 %
07.05.2021 15:58 11,4 C 12,2 C 8,9 C 64 % 1017,3 hPa 0,0 l/m 2 min 0 min 380 W/m 12,9 km/h (3 Bft) 93,62 %
07.05.2021 16:00 11,5 C 13,9 C 9,5 C 65 % 1017,3 hPa 0,0 l/m 2 min 0 min 517 W/m 9,7 km/h (2 Bft) 97,87 %
07.05.2021 16:02 11,6 C 13,9 C 10,0 C 65 % 1017,3 hPa 0,0 l/m 2 min 0 min 965 W/m 12,9 km/h (3 Bft) 97,87 %
07.05.2021 16:04 11,9 C 13,9 C 10,0 C 65 % 1017,3 hPa 0,0 l/m 2 min 0 min 518 W/m 6,4 km/h (2 Bft) 95,74 %
07.05.2021 16:06 12,0 C 13,9 C 10,0 C 63 % 1017,3 hPa 0,0 l/m 0 min 0 min 337 W/m 12,9 km/h (3 Bft) 97,83 %
07.05.2021 16:08 12,1 C 13,9 C 10,0 C 63 % 1017,3 hPa 0,0 l/m 2 min 0 min 403 W/m 16,1 km/h (3 Bft) 97,87 %
07.05.2021 16:10 12,2 C 14,4 C 10,6 C 63 % 1017,3 hPa 0,0 l/m 2 min 0 min 451 W/m 6,4 km/h (2 Bft) 97,87 %
07.05.2021 16:12 12,3 C 15,6 C 10,6 C 62 % 1017,3 hPa 0,0 l/m 2 min 0 min 512 W/m 9,7 km/h (2 Bft) 97,87 %
07.05.2021 16:14 12,3 C 14,4 C 10,6 C 61 % 1017,2 hPa 0,0 l/m 2 min 0 min 451 W/m 19,3 km/h (3 Bft) 97,87 %
07.05.2021 16:16 12,4 C 13,3 C 10,0 C 61 % 1017,3 hPa 0,0 l/m 0 min 0 min 187 W/m 9,7 km/h (2 Bft) 95,74 %
07.05.2021 16:18 12,4 C 12,8 C 10,0 C 61 % 1017,3 hPa 0,0 l/m 0 min 0 min 139 W/m 6,4 km/h (2 Bft) 97,83 %
07.05.2021 16:20 12,3 C 12,2 C 10,0 C 61 % 1017,3 hPa 0,0 l/m 0 min 0 min 115 W/m 12,9 km/h (3 Bft) 97,87 %
07.05.2021 16:22 12,2 C 11,7 C 9,5 C 61 % 1017,3 hPa 0,0 l/m 0 min 0 min 96 W/m 12,9 km/h (3 Bft) 97,87 %
07.05.2021 16:24 12,1 C 11,7 C 9,5 C 60 % 1017,4 hPa 0,0 l/m 0 min 0 min 82 W/m 16,1 km/h (3 Bft) 97,87 %
07.05.2021 16:26 11,9 C 11,1 C 8,9 C 60 % 1017,3 hPa 0,0 l/m 0 min 0 min 78 W/m 6,4 km/h (2 Bft) 97,87 %
07.05.2021 16:28 11,9 C 11,1 C 8,9 C 61 % 1017,4 hPa 0,0 l/m 0 min 0 min 87 W/m 12,9 km/h (3 Bft) 100,00 %
07.05.2021 16:30 11,8 C 11,7 C 8,9 C 62 % 1017,4 hPa 0,0 l/m 0 min 0 min 110 W/m 3,2 km/h (1 Bft) 100,00 %
07.05.2021 16:32 11,8 C 11,7 C 8,9 C 62 % 1017,4 hPa 0,0 l/m 0 min 0 min 153 W/m 12,9 km/h (3 Bft) 100,00 %
07.05.2021 16:34 11,7 C 11,7 C 8,9 C 62 % 1017,4 hPa 0,0 l/m 0 min 0 min 220 W/m 6,4 km/h (2 Bft) 95,74 %
07.05.2021 16:36 11,7 C 13,9 C 9,5 C 63 % 1017,4 hPa 0,0 l/m 0 min 0 min 279 W/m 9,7 km/h (2 Bft) 100,00 %
07.05.2021 16:38 11,9 C 13,3 C 9,5 C 64 % 1017,4 hPa 0,0 l/m 0 min 0 min 283 W/m 12,9 km/h (3 Bft) 97,87 %
07.05.2021 16:40 11,9 C 12,8 C 9,5 C 61 % 1017,4 hPa 0,0 l/m 0 min 0 min 263 W/m 12,9 km/h (3 Bft) 100,00 %
07.05.2021 16:42 12,0 C 12,8 C 9,5 C 60 % 1017,4 hPa 0,0 l/m 0 min 0 min 216 W/m 6,4 km/h (2 Bft) 100,00 %
07.05.2021 16:44 12,0 C 12,8 C 9,5 C 61 % 1017,4 hPa 0,0 l/m 0 min 0 min 181 W/m 6,4 km/h (2 Bft) 100,00 %
07.05.2021 16:46 12,0 C 12,8 C 9,5 C 62 % 1017,4 hPa 0,0 l/m 0 min 0 min 181 W/m 6,4 km/h (2 Bft) 100,00 %
07.05.2021 16:48 12,0 C 13,9 C 9,5 C 61 % 1017,4 hPa 0,0 l/m 0 min 0 min 274 W/m 6,4 km/h (2 Bft) 97,87 %
07.05.2021 16:50 12,1 C 16,1 C 10,0 C 61 % 1017,4 hPa 0,0 l/m 2 min 0 min 789 W/m 12,9 km/h (3 Bft) 100,00 %
07.05.2021 16:52 12,2 C 15,6 C 10,0 C 60 % 1017,4 hPa 0,0 l/m 2 min 0 min 731 W/m 12,9 km/h (3 Bft) 100,00 %
07.05.2021 16:54 12,3 C 14,4 C 10,0 C 59 % 1017,4 hPa 0,0 l/m 0 min 0 min 189 W/m 19,3 km/h (3 Bft) 100,00 %
07.05.2021 16:56 12,4 C 13,3 C 10,0 C 59 % 1017,4 hPa 0,0 l/m 0 min 0 min 155 W/m 16,1 km/h (3 Bft) 95,74 %
07.05.2021 16:58 12,4 C 15,0 C 10,0 C 59 % 1017,4 hPa 0,0 l/m 2 min 0 min 387 W/m 9,7 km/h (2 Bft) 97,87 %
07.05.2021 17:00 12,5 C 15,6 C 10,0 C 59 % 1017,4 hPa 0,0 l/m 2 min 0 min 690 W/m 16,1 km/h (3 Bft) 97,87 %
07.05.2021 17:02 12,5 C 16,7 C 10,0 C 56 % 1017,3 hPa 0,0 l/m 2 min 0 min 675 W/m 12,9 km/h (3 Bft) 97,87 %
07.05.2021 17:04 12,7 C 17,2 C 10,6 C 56 % 1017,3 hPa 0,0 l/m 2 min 0 min 686 W/m 9,7 km/h (2 Bft) 97,83 %
07.05.2021 17:06 12,9 C 18,3 C 10,6 C 55 % 1017,3 hPa 0,0 l/m 2 min 0 min 698 W/m 16,1 km/h (3 Bft) 95,74 %
07.05.2021 17:08 13,1 C 18,9 C 11,1 C 56 % 1017,1 hPa 0,0 l/m 2 min 0 min 702 W/m 29,0 km/h (5 Bft) 97,87 %
07.05.2021 17:10 13,3 C 19,4 C 11,1 C 57 % 1017,3 hPa 0,0 l/m 2 min 0 min 694 W/m 12,9 km/h (3 Bft) 97,87 %
07.05.2021 17:12 13,5 C 19,4 C 11,1 C 56 % 1017,3 hPa 0,0 l/m 2 min 0 min 689 W/m 16,1 km/h (3 Bft) 95,74 %
07.05.2021 17:14 13,7 C 17,8 C 11,1 C 53 % 1017,3 hPa 0,0 l/m 2 min 0 min 687 W/m 16,1 km/h (3 Bft) 97,87 %
07.05.2021 17:16 13,6 C 16,1 C 11,1 C 53 % 1017,2 hPa 0,0 l/m 0 min 0 min 259 W/m 19,3 km/h (3 Bft) 97,83 %
07.05.2021 17:18 13,7 C 16,7 C 11,1 C 57 % 1017,3 hPa 0,0 l/m 2 min 0 min 284 W/m 12,9 km/h (3 Bft) 97,87 %
07.05.2021 17:20 13,7 C 17,2 C 11,1 C 55 % 1017,3 hPa 0,0 l/m 2 min 0 min 721 W/m 16,1 km/h (3 Bft) 95,74 %
07.05.2021 17:22 13,8 C 18,9 C 11,7 C 57 % 1017,3 hPa 0,0 l/m 2 min 0 min 697 W/m 9,7 km/h (2 Bft) 97,87 %
07.05.2021 17:24 13,9 C 17,8 C 11,7 C 53 % 1017,3 hPa 0,0 l/m 2 min 0 min 650 W/m 12,9 km/h (3 Bft) 95,74 %
07.05.2021 17:26 13,9 C 17,8 C 11,7 C 52 % 1017,3 hPa 0,0 l/m 2 min 0 min 455 W/m 12,9 km/h (3 Bft) 95,74 %
07.05.2021 17:28 13,9 C 17,2 C 11,7 C 51 % 1017,3 hPa 0,0 l/m 2 min 0 min 383 W/m 12,9 km/h (3 Bft) 97,83 %
07.05.2021 17:30 13,9 C 17,2 C 11,1 C 52 % 1017,3 hPa 0,0 l/m 2 min 0 min 335 W/m 16,1 km/h (3 Bft) 95,74 %
07.05.2021 17:32 13,8 C 18,3 C 11,7 C 54 % 1017,3 hPa 0,0 l/m 2 min 0 min 605 W/m 12,9 km/h (3 Bft) 95,74 %
07.05.2021 17:34 13,9 C 17,8 C 11,7 C 52 % 1017,3 hPa 0,0 l/m 2 min 0 min 714 W/m 12,9 km/h (3 Bft) 95,74 %
07.05.2021 17:36 13,9 C 18,3 C 11,7 C 52 % 1017,3 hPa 0,0 l/m 2 min 0 min 671 W/m 16,1 km/h (3 Bft) 95,74 %
07.05.2021 17:38 13,9 C 16,7 C 11,7 C 53 % 1017,3 hPa 0,0 l/m 2 min 0 min 537 W/m 12,9 km/h (3 Bft) 97,83 %
07.05.2021 17:40 13,9 C 16,7 C 11,7 C 52 % 1017,3 hPa 0,0 l/m 2 min 0 min 273 W/m 16,1 km/h (3 Bft) 95,74 %
07.05.2021 17:42 13,9 C 15,6 C 11,1 C 52 % 1017,3 hPa 0,0 l/m 2 min 0 min 520 W/m 16,1 km/h (3 Bft) 95,74 %
07.05.2021 17:44 13,9 C 15,0 C 11,1 C 53 % 1017,3 hPa 0,0 l/m 0 min 0 min 216 W/m 12,9 km/h (3 Bft) 95,74 %
07.05.2021 17:46 13,8 C 13,9 C 10,6 C 53 % 1017,4 hPa 0,0 l/m 0 min 0 min 125 W/m 12,9 km/h (3 Bft) 95,74 %
07.05.2021 17:48 13,6 C 13,9 C 10,6 C 54 % 1017,4 hPa 0,0 l/m 0 min 0 min 162 W/m 9,7 km/h (2 Bft) 95,74 %
07.05.2021 17:50 13,5 C 15,0 C 10,6 C 53 % 1017,4 hPa 0,0 l/m 2 min 0 min 312 W/m 16,1 km/h (3 Bft) 95,65 %
07.05.2021 17:52 13,4 C 16,7 C 10,6 C 54 % 1017,4 hPa 0,0 l/m 2 min 0 min 581 W/m 12,9 km/h (3 Bft) 93,62 %
07.05.2021 17:54 13,4 C 17,2 C 11,1 C 54 % 1017,4 hPa 0,0 l/m 2 min 0 min 592 W/m 12,9 km/h (3 Bft) 95,74 %
07.05.2021 17:56 13,5 C 16,7 C 11,1 C 54 % 1017,4 hPa 0,0 l/m 2 min 0 min 562 W/m 6,4 km/h (2 Bft) 95,74 %
07.05.2021 17:58 13,6 C 15,6 C 11,1 C 54 % 1017,4 hPa 0,0 l/m 2 min 0 min 326 W/m 19,3 km/h (3 Bft) 91,49 %
07.05.2021 18:00 13,5 C 14,4 C 11,1 C 53 % 1017,4 hPa 0,0 l/m 0 min 0 min 94 W/m 6,4 km/h (2 Bft) 93,62 %
07.05.2021 18:02 13,5 C 13,3 C 10,6 C 53 % 1017,4 hPa 0,0 l/m 0 min 0 min 84 W/m 12,9 km/h (3 Bft) 95,65 %
07.05.2021 18:04 13,4 C 12,8 C 10,0 C 54 % 1017,4 hPa 0,0 l/m 0 min 0 min 85 W/m 9,7 km/h (2 Bft) 97,87 %
07.05.2021 18:08 13,1 C 12,8 C 10,0 C 54 % 1017,4 hPa 0,0 l/m 0 min 0 min 102 W/m 12,9 km/h (3 Bft) 100,00 %
07.05.2021 18:10 13,0 C 12,8 C 10,0 C 55 % 1017,4 hPa 0,0 l/m 0 min 0 min 121 W/m 6,4 km/h (2 Bft) 95,74 %
07.05.2021 18:12 12,9 C 12,8 C 10,0 C 55 % 1017,4 hPa 0,0 l/m 0 min 0 min 134 W/m 6,4 km/h (2 Bft) 97,87 %
07.05.2021 18:14 12,9 C 12,8 C 10,0 C 56 % 1017,4 hPa 0,0 l/m 0 min 0 min 152 W/m 9,7 km/h (2 Bft) 97,83 %
07.05.2021 18:16 12,9 C 12,8 C 10,0 C 56 % 1017,4 hPa 0,0 l/m 0 min 0 min 165 W/m 3,2 km/h (1 Bft) 95,74 %
07.05.2021 18:18 12,9 C 12,8 C 10,0 C 57 % 1017,4 hPa 0,0 l/m 0 min 0 min 170 W/m 9,7 km/h (2 Bft) 97,87 %
07.05.2021 18:20 12,9 C 14,4 C 10,0 C 57 % 1017,5 hPa 0,0 l/m 0 min 0 min 178 W/m 6,4 km/h (2 Bft) 95,74 %
07.05.2021 18:22 12,9 C 15,6 C 10,6 C 57 % 1017,5 hPa 0,0 l/m 2 min 0 min 489 W/m 12,9 km/h (3 Bft) 97,87 %
07.05.2021 18:24 13,0 C 16,1 C 10,6 C 56 % 1017,5 hPa 0,0 l/m 2 min 0 min 431 W/m 6,4 km/h (2 Bft) 97,87 %
07.05.2021 18:26 13,0 C 17,2 C 10,6 C 56 % 1017,5 hPa 0,0 l/m 2 min 0 min 435 W/m 9,7 km/h (2 Bft) 97,83 %
07.05.2021 18:28 13,1 C 18,3 C 11,1 C 58 % 1017,5 hPa 0,0 l/m 2 min 0 min 434 W/m 9,7 km/h (2 Bft) 97,87 %
07.05.2021 18:30 13,3 C 17,8 C 11,1 C 56 % 1017,5 hPa 0,0 l/m 2 min 0 min 427 W/m 12,9 km/h (3 Bft) 97,87 %
07.05.2021 18:32 13,3 C 16,7 C 11,1 C 56 % 1017,5 hPa 0,0 l/m 2 min 0 min 364 W/m 6,4 km/h (2 Bft) 97,87 %
07.05.2021 18:34 13,4 C 16,7 C 10,6 C 55 % 1017,5 hPa 0,0 l/m 2 min 0 min 362 W/m 9,7 km/h (2 Bft) 93,62 %
07.05.2021 18:36 13,4 C 17,2 C 10,6 C 55 % 1017,6 hPa 0,0 l/m 2 min 0 min 359 W/m 12,9 km/h (3 Bft) 97,83 %
07.05.2021 18:38 13,4 C 16,7 C 10,6 C 56 % 1017,5 hPa 0,0 l/m 2 min 0 min 339 W/m 12,9 km/h (3 Bft) 97,87 %
07.05.2021 18:40 13,4 C 17,2 C 10,6 C 56 % 1017,5 hPa 0,0 l/m 2 min 0 min 372 W/m 9,7 km/h (2 Bft) 97,87 %
07.05.2021 18:42 13,4 C 17,2 C 10,6 C 55 % 1017,5 hPa 0,0 l/m 2 min 0 min 365 W/m 19,3 km/h (3 Bft) 97,87 %
07.05.2021 18:44 13,4 C 17,2 C 10,6 C 55 % 1017,5 hPa 0,0 l/m 2 min 0 min 343 W/m 16,1 km/h (3 Bft) 97,87 %
07.05.2021 18:46 13,5 C 16,7 C 10,0 C 56 % 1017,5 hPa 0,0 l/m 2 min 0 min 294 W/m 6,4 km/h (2 Bft) 95,74 %
07.05.2021 18:48 13,5 C 16,7 C 10,0 C 56 % 1017,6 hPa 0,0 l/m 2 min 0 min 182 W/m 9,7 km/h (2 Bft) 97,83 %
07.05.2021 18:50 13,4 C 16,1 C 10,0 C 56 % 1017,5 hPa 0,0 l/m 2 min 0 min 299 W/m 6,4 km/h (2 Bft) 97,87 %
07.05.2021 18:52 13,4 C 16,1 C 10,0 C 56 % 1017,5 hPa 0,0 l/m 2 min 0 min 262 W/m 6,4 km/h (2 Bft) 93,62 %
07.05.2021 18:54 13,4 C 15,0 C 10,0 C 56 % 1017,5 hPa 0,0 l/m 0 min 0 min 129 W/m 3,2 km/h (1 Bft) 97,87 %
07.05.2021 18:56 13,3 C 14,4 C 10,0 C 55 % 1017,5 hPa 0,0 l/m 0 min 0 min 130 W/m 12,9 km/h (3 Bft) 100,00 %
07.05.2021 18:58 13,2 C 13,9 C 10,0 C 55 % 1017,6 hPa 0,0 l/m 0 min 0 min 103 W/m 6,4 km/h (2 Bft) 97,87 %
07.05.2021 19:00 13,2 C 13,3 C 9,5 C 56 % 1017,6 hPa 0,0 l/m 0 min 0 min 107 W/m 3,2 km/h (1 Bft) 100,00 %
07.05.2021 19:02 13,1 C 12,8 C 10,0 C 57 % 1017,6 hPa 0,0 l/m 0 min 0 min 100 W/m 6,4 km/h (2 Bft) 100,00 %
07.05.2021 19:04 13,1 C 12,8 C 9,5 C 56 % 1017,5 hPa 0,0 l/m 2 min 0 min 159 W/m 19,3 km/h (3 Bft) 100,00 %
07.05.2021 19:06 13,0 C 12,8 C 9,5 C 56 % 1017,5 hPa 0,0 l/m 2 min 0 min 245 W/m 6,4 km/h (2 Bft) 100,00 %
07.05.2021 19:10 13,0 C 12,8 C 9,5 C 56 % 1017,5 hPa 0,0 l/m 4 min 0 min 254 W/m 3,2 km/h (1 Bft) 100,00 %
07.05.2021 19:12 13,0 C 12,8 C 9,5 C 57 % 1017,5 hPa 0,0 l/m 2 min 0 min 251 W/m 12,9 km/h (3 Bft) 100,00 %
07.05.2021 19:14 12,9 C 12,8 C 9,5 C 56 % 1017,5 hPa 0,0 l/m 2 min 0 min 247 W/m 9,7 km/h (2 Bft) 97,96 %
07.05.2021 19:16 12,9 C 12,8 C 9,5 C 56 % 1017,5 hPa 0,0 l/m 2 min 0 min 191 W/m 9,7 km/h (2 Bft) 97,87 %
07.05.2021 19:18 12,9 C 12,8 C 9,5 C 57 % 1017,5 hPa 0,0 l/m 0 min 0 min 114 W/m 6,4 km/h (2 Bft) 100,00 %
07.05.2021 19:20 12,9 C 12,8 C 9,5 C 57 % 1017,5 hPa 0,0 l/m 0 min 0 min 94 W/m 9,7 km/h (2 Bft) 100,00 %
07.05.2021 19:22 12,9 C 12,8 C 9,5 C 57 % 1017,4 hPa 0,0 l/m 0 min 0 min 83 W/m 6,4 km/h (2 Bft) 100,00 %
07.05.2021 19:24 12,9 C 12,8 C 9,5 C 58 % 1017,5 hPa 0,0 l/m 0 min 0 min 84 W/m 6,4 km/h (2 Bft) 100,00 %
07.05.2021 19:26 12,9 C 12,8 C 9,5 C 57 % 1017,5 hPa 0,0 l/m 0 min 0 min 94 W/m 12,9 km/h (3 Bft) 100,00 %
07.05.2021 19:28 12,9 C 12,8 C 9,5 C 57 % 1017,5 hPa 0,0 l/m 0 min 0 min 110 W/m 9,7 km/h (2 Bft) 100,00 %
07.05.2021 19:30 12,9 C 12,8 C 10,0 C 57 % 1017,5 hPa 0,0 l/m 0 min 0 min 110 W/m 6,4 km/h (2 Bft) 97,96 %
07.05.2021 19:32 12,9 C 12,8 C 10,0 C 57 % 1017,5 hPa 0,0 l/m 0 min 0 min 96 W/m 6,4 km/h (2 Bft) 100,00 %
07.05.2021 19:34 12,8 C 12,2 C 9,5 C 57 % 1017,6 hPa 0,0 l/m 0 min 0 min 77 W/m 6,4 km/h (2 Bft) 100,00 %
07.05.2021 19:36 12,8 C 12,2 C 9,5 C 57 % 1017,6 hPa 0,0 l/m 0 min 0 min 68 W/m 6,4 km/h (2 Bft) 98,00 %
07.05.2021 19:38 12,8 C 12,2 C 9,5 C 57 % 1017,5 hPa 0,0 l/m 0 min 0 min 60 W/m 12,9 km/h (3 Bft) 100,00 %
07.05.2021 19:40 12,7 C 12,2 C 9,5 C 56 % 1017,5 hPa 0,0 l/m 0 min 0 min 55 W/m 6,4 km/h (2 Bft) 100,00 %
07.05.2021 19:42 12,6 C 12,2 C 9,5 C 57 % 1017,6 hPa 0,0 l/m 0 min 0 min 56 W/m 9,7 km/h (2 Bft) 100,00 %
07.05.2021 19:44 12,6 C 11,7 C 9,5 C 57 % 1017,6 hPa 0,0 l/m 0 min 0 min 53 W/m 12,9 km/h (3 Bft) 100,00 %
07.05.2021 19:46 12,5 C 11,7 C 8,9 C 57 % 1017,5 hPa 0,0 l/m 0 min 0 min 52 W/m 12,9 km/h (3 Bft) 97,87 %
07.05.2021 19:48 12,5 C 11,7 C 8,9 C 57 % 1017,6 hPa 0,0 l/m 0 min 0 min 52 W/m 6,4 km/h (2 Bft) 100,00 %
07.05.2021 19:50 12,5 C 11,7 C 8,9 C 57 % 1017,6 hPa 0,0 l/m 0 min 0 min 49 W/m 9,7 km/h (2 Bft) 100,00 %
07.05.2021 19:52 12,5 C 11,7 C 8,9 C 58 % 1017,6 hPa 0,0 l/m 0 min 0 min 47 W/m 6,4 km/h (2 Bft) 97,87 %
07.05.2021 19:54 12,4 C 11,7 C 8,9 C 58 % 1017,6 hPa 0,0 l/m 0 min 0 min 46 W/m 3,2 km/h (1 Bft) 100,00 %
07.05.2021 19:56 12,4 C 11,7 C 8,9 C 58 % 1017,6 hPa 0,0 l/m 0 min 0 min 44 W/m 6,4 km/h (2 Bft) 100,00 %
07.05.2021 19:58 12,4 C 11,7 C 8,9 C 58 % 1017,6 hPa 0,0 l/m 0 min 0 min 43 W/m 6,4 km/h (2 Bft) 95,74 %
07.05.2021 20:00 12,3 C 11,7 C 8,9 C 59 % 1017,6 hPa 0,0 l/m 0 min 0 min 40 W/m 6,4 km/h (2 Bft) 97,87 %
07.05.2021 20:02 12,2 C 11,7 C 8,9 C 59 % 1017,6 hPa 0,0 l/m 0 min 0 min 40 W/m 6,4 km/h (2 Bft) 97,87 %
07.05.2021 20:04 12,1 C 11,1 C 8,4 C 59 % 1017,6 hPa 0,0 l/m 0 min 0 min 41 W/m 6,4 km/h (2 Bft) 95,65 %
07.05.2021 20:06 12,1 C 11,1 C 8,4 C 60 % 1017,6 hPa 0,0 l/m 0 min 0 min 40 W/m 3,2 km/h (1 Bft) 95,74 %
07.05.2021 20:08 12,0 C 11,1 C 8,4 C 60 % 1017,6 hPa 0,0 l/m 0 min 0 min 39 W/m 6,4 km/h (2 Bft) 97,87 %
07.05.2021 20:10 12,0 C 11,1 C 8,4 C 60 % 1017,6 hPa 0,0 l/m 0 min 0 min 36 W/m 3,2 km/h (1 Bft) 93,62 %
07.05.2021 20:12 11,9 C 11,1 C 8,4 C 61 % 1017,7 hPa 0,0 l/m 0 min 0 min 33 W/m 3,2 km/h (1 Bft) 95,74 %
07.05.2021 20:14 11,9 C 11,1 C 8,4 C 61 % 1017,7 hPa 0,0 l/m 0 min 0 min 33 W/m 6,4 km/h (2 Bft) 97,87 %
07.05.2021 20:16 11,8 C 10,6 C 8,4 C 62 % 1017,6 hPa 0,0 l/m 0 min 0 min 33 W/m 3,2 km/h (1 Bft) 97,83 %
07.05.2021 20:18 11,8 C 10,6 C 8,4 C 62 % 1017,7 hPa 0,0 l/m 0 min 0 min 33 W/m 3,2 km/h (1 Bft) 95,74 %
07.05.2021 20:20 11,8 C 10,6 C 7,8 C 63 % 1017,7 hPa 0,0 l/m 0 min 0 min 33 W/m 0,0 km/h (0 Bft) 95,74 %
07.05.2021 20:22 11,7 C 10,6 C 7,8 C 63 % 1017,7 hPa 0,0 l/m 0 min 0 min 33 W/m 3,2 km/h (1 Bft) 95,74 %
07.05.2021 20:24 11,6 C 10,6 C 7,8 C 63 % 1017,7 hPa 0,0 l/m 0 min 0 min 33 W/m 3,2 km/h (1 Bft) 93,62 %
07.05.2021 20:26 11,5 C 10,6 C 7,8 C 64 % 1017,7 hPa 0,0 l/m 0 min 0 min 33 W/m 3,2 km/h (1 Bft) 95,74 %
07.05.2021 20:28 11,5 C 10,6 C 7,8 C 63 % 1017,7 hPa 0,0 l/m 0 min 0 min 34 W/m 3,2 km/h (1 Bft) 95,65 %
07.05.2021 20:30 11,4 C 10,6 C 7,8 C 63 % 1017,8 hPa 0,0 l/m 0 min 0 min 35 W/m 3,2 km/h (1 Bft) 95,74 %
07.05.2021 20:32 11,4 C 10,6 C 7,8 C 63 % 1017,7 hPa 0,0 l/m 0 min 0 min 33 W/m 3,2 km/h (1 Bft) 93,62 %
07.05.2021 20:34 11,3 C 10,6 C 7,8 C 63 % 1017,8 hPa 0,0 l/m 0 min 0 min 29 W/m 3,2 km/h (1 Bft) 97,87 %
07.05.2021 20:36 11,3 C 10,0 C 7,8 C 63 % 1017,8 hPa 0,0 l/m 0 min 0 min 24 W/m 6,4 km/h (2 Bft) 93,62 %
07.05.2021 20:38 11,2 C 10,0 C 7,8 C 63 % 1017,8 hPa 0,0 l/m 0 min 0 min 22 W/m 3,2 km/h (1 Bft) 97,87 %
07.05.2021 20:40 11,1 C 10,0 C 7,3 C 63 % 1017,9 hPa 0,0 l/m 0 min 0 min 19 W/m 3,2 km/h (1 Bft) 97,83 %
07.05.2021 20:42 11,1 C 10,0 C 7,3 C 64 % 1017,9 hPa 0,0 l/m 0 min 0 min 19 W/m 3,2 km/h (1 Bft) 97,87 %
07.05.2021 20:44 11,0 C 10,0 C 7,3 C 64 % 1017,9 hPa 0,0 l/m 0 min 0 min 18 W/m 3,2 km/h (1 Bft) 97,87 %
07.05.2021 20:46 11,0 C 10,0 C 7,3 C 64 % 1017,9 hPa 0,0 l/m 0 min 0 min 16 W/m 6,4 km/h (2 Bft) 97,87 %
07.05.2021 20:48 10,9 C 10,0 C 7,3 C 64 % 1017,9 hPa 0,0 l/m 0 min 0 min 16 W/m 6,4 km/h (2 Bft) 97,87 %
07.05.2021 20:50 10,9 C 10,0 C 7,3 C 63 % 1018,0 hPa 0,0 l/m 0 min 0 min 14 W/m 6,4 km/h (2 Bft) 97,87 %
07.05.2021 20:52 10,8 C 10,0 C 7,3 C 63 % 1018,0 hPa 0,0 l/m 0 min 0 min 13 W/m 6,4 km/h (2 Bft) 93,48 %
07.05.2021 20:54 10,8 C 10,0 C 7,3 C 63 % 1018,0 hPa 0,0 l/m 0 min 0 min 12 W/m 3,2 km/h (1 Bft) 95,74 %
07.05.2021 20:56 10,7 C 9,4 C 7,3 C 63 % 1018,0 hPa 0,0 l/m 0 min 0 min 11 W/m 3,2 km/h (1 Bft) 95,74 %
07.05.2021 20:58 10,6 C 9,4 C 7,3 C 64 % 1018,1 hPa 0,0 l/m 0 min 0 min 11 W/m 3,2 km/h (1 Bft) 95,74 %
07.05.2021 21:00 10,6 C 9,4 C 6,7 C 64 % 1018,1 hPa 0,0 l/m 0 min 0 min 9 W/m 3,2 km/h (1 Bft) 95,74 %
07.05.2021 21:02 10,5 C 9,4 C 6,7 C 64 % 1018,1 hPa 0,0 l/m 0 min 0 min 8 W/m 3,2 km/h (1 Bft) 95,74 %
07.05.2021 21:04 10,4 C 9,4 C 6,7 C 64 % 1018,2 hPa 0,0 l/m 0 min 0 min 6 W/m 6,4 km/h (2 Bft) 95,65 %
07.05.2021 21:06 10,4 C 9,4 C 6,7 C 65 % 1018,2 hPa 0,0 l/m 0 min 0 min 5 W/m 6,4 km/h (2 Bft) 95,74 %
07.05.2021 21:08 10,4 C 8,9 C 6,7 C 65 % 1018,2 hPa 0,0 l/m 0 min 0 min 4 W/m 3,2 km/h (1 Bft) 95,74 %
07.05.2021 21:10 10,3 C 8,9 C 6,7 C 65 % 1018,2 hPa 0,0 l/m 0 min 0 min 0 W/m 6,4 km/h (2 Bft) 93,62 %
07.05.2021 21:12 10,2 C 8,9 C 6,7 C 65 % 1018,2 hPa 0,0 l/m 0 min 0 min 0 W/m 6,4 km/h (2 Bft) 95,74 %
07.05.2021 21:14 10,1 C 8,9 C 6,7 C 65 % 1018,3 hPa 0,0 l/m 0 min 0 min 0 W/m 3,2 km/h (1 Bft) 95,74 %
07.05.2021 21:16 10,1 C 8,9 C 6,7 C 66 % 1018,3 hPa 0,0 l/m 0 min 0 min 0 W/m 3,2 km/h (1 Bft) 95,65 %
07.05.2021 21:18 10,1 C 8,9 C 6,1 C 66 % 1018,3 hPa 0,0 l/m 0 min 0 min 0 W/m 3,2 km/h (1 Bft) 95,74 %
07.05.2021 21:20 10,0 C 8,9 C 6,1 C 66 % 1018,3 hPa 0,0 l/m 0 min 0 min 0 W/m 3,2 km/h (1 Bft) 95,74 %
07.05.2021 21:22 10,0 C 8,9 C 6,1 C 66 % 1018,3 hPa 0,0 l/m 0 min 0 min 0 W/m 3,2 km/h (1 Bft) 95,74 %
07.05.2021 21:24 9,9 C 8,9 C 6,1 C 67 % 1018,3 hPa 0,0 l/m 0 min 0 min 0 W/m 3,2 km/h (1 Bft) 93,62 %
07.05.2021 21:26 9,8 C 8,3 C 6,1 C 67 % 1018,4 hPa 0,0 l/m 0 min 0 min 0 W/m 0,0 km/h (0 Bft) 91,49 %
07.05.2021 21:28 9,8 C 8,3 C 6,1 C 68 % 1018,4 hPa 0,0 l/m 0 min 0 min 0 W/m 3,2 km/h (1 Bft) 95,65 %
07.05.2021 21:30 9,7 C 8,3 C 6,1 C 67 % 1018,4 hPa 0,0 l/m 0 min 0 min 0 W/m 3,2 km/h (1 Bft) 95,74 %
07.05.2021 21:32 9,6 C 8,3 C 6,1 C 67 % 1018,4 hPa 0,0 l/m 0 min 0 min 0 W/m 3,2 km/h (1 Bft) 95,74 %
07.05.2021 21:34 9,6 C 8,3 C 6,1 C 68 % 1018,5 hPa 0,0 l/m 0 min 0 min 0 W/m 3,2 km/h (1 Bft) 95,74 %
07.05.2021 21:36 9,5 C 8,3 C 6,1 C 68 % 1018,5 hPa 0,0 l/m 0 min 0 min 0 W/m 0,0 km/h (0 Bft) 95,74 %
07.05.2021 21:38 9,5 C 8,3 C 5,6 C 68 % 1018,6 hPa 0,0 l/m 0 min 0 min 0 W/m 0,0 km/h (0 Bft) 97,87 %
07.05.2021 21:40 9,5 C 7,8 C 5,6 C 68 % 1018,6 hPa 0,0 l/m 0 min 0 min 0 W/m 3,2 km/h (1 Bft) 97,83 %
07.05.2021 21:42 9,4 C 7,8 C 5,6 C 68 % 1018,6 hPa 0,0 l/m 0 min 0 min 0 W/m 3,2 km/h (1 Bft) 97,87 %
07.05.2021 21:44 9,4 C 7,8 C 5,6 C 68 % 1018,6 hPa 0,0 l/m 0 min 0 min 0 W/m 3,2 km/h (1 Bft) 93,62 %
07.05.2021 21:46 9,3 C 7,8 C 5,6 C 69 % 1018,6 hPa 0,0 l/m 0 min 0 min 0 W/m 0,0 km/h (0 Bft) 97,87 %
07.05.2021 21:48 9,3 C 7,8 C 5,0 C 69 % 1018,6 hPa 0,0 l/m 0 min 0 min 0 W/m 0,0 km/h (0 Bft) 97,87 %
07.05.2021 21:50 9,3 C 7,8 C 5,0 C 69 % 1018,6 hPa 0,0 l/m 0 min 0 min 0 W/m 0,0 km/h (0 Bft) 97,87 %
07.05.2021 21:52 9,2 C 7,2 C 5,0 C 70 % 1018,7 hPa 0,0 l/m 0 min 0 min 0 W/m 0,0 km/h (0 Bft) 97,83 %
07.05.2021 21:54 9,2 C 7,2 C 5,0 C 70 % 1018,7 hPa 0,0 l/m 0 min 0 min 0 W/m 0,0 km/h (0 Bft) 97,87 %
07.05.2021 21:56 9,2 C 7,2 C 4,5 C 70 % 1018,7 hPa 0,0 l/m 0 min 0 min 0 W/m 0,0 km/h (0 Bft) 100,00 %
07.05.2021 21:58 9,1 C 6,7 C 4,5 C 70 % 1018,7 hPa 0,0 l/m 0 min 0 min 0 W/m 0,0 km/h (0 Bft) 97,87 %
07.05.2021 22:00 9,1 C 6,7 C 4,5 C 71 % 1018,7 hPa 0,0 l/m 0 min 0 min 0 W/m 0,0 km/h (0 Bft) 97,87 %
07.05.2021 22:02 9,0 C 6,7 C 4,5 C 71 % 1018,7 hPa 0,0 l/m 0 min 0 min 0 W/m 0,0 km/h (0 Bft) 100,00 %
07.05.2021 22:04 9,0 C 6,7 C 4,5 C 71 % 1018,7 hPa 0,0 l/m 0 min 0 min 0 W/m 0,0 km/h (0 Bft) 97,83 %
07.05.2021 22:06 8,9 C 6,7 C 4,5 C 71 % 1018,7 hPa 0,0 l/m 0 min 0 min 0 W/m 0,0 km/h (0 Bft) 93,62 %
07.05.2021 22:08 8,9 C 6,7 C 4,5 C 72 % 1018,8 hPa 0,0 l/m 0 min 0 min 0 W/m 0,0 km/h (0 Bft) 97,87 %
07.05.2021 22:10 8,8 C 6,7 C 3,9 C 72 % 1018,7 hPa 0,0 l/m 0 min 0 min 0 W/m 0,0 km/h (0 Bft) 97,87 %
07.05.2021 22:12 8,8 C 6,1 C 3,9 C 72 % 1018,7 hPa 0,0 l/m 0 min 0 min 0 W/m 0,0 km/h (0 Bft) 97,87 %
07.05.2021 22:14 8,6 C 6,1 C 3,9 C 73 % 1018,8 hPa 0,0 l/m 0 min 0 min 0 W/m 0,0 km/h (0 Bft) 95,74 %
07.05.2021 22:16 8,6 C 6,1 C 3,9 C 73 % 1018,8 hPa 0,0 l/m 0 min 0 min 0 W/m 0,0 km/h (0 Bft) 93,48 %
07.05.2021 22:18 8,5 C 6,1 C 3,9 C 73 % 1018,9 hPa 0,0 l/m 0 min 0 min 0 W/m 0,0 km/h (0 Bft) 97,87 %
07.05.2021 22:20 8,5 C 6,1 C 3,9 C 74 % 1018,9 hPa 0,0 l/m 0 min 0 min 0 W/m 0,0 km/h (0 Bft) 95,74 %
07.05.2021 22:22 8,4 C 6,1 C 3,9 C 74 % 1018,9 hPa 0,0 l/m 0 min 0 min 0 W/m 0,0 km/h (0 Bft) 97,87 %
07.05.2021 22:24 8,3 C 6,1 C 3,9 C 74 % 1018,8 hPa 0,0 l/m 0 min 0 min 0 W/m 0,0 km/h (0 Bft) 97,87 %
07.05.2021 22:26 8,3 C 6,1 C 3,9 C 74 % 1018,8 hPa 0,0 l/m 0 min 0 min 0 W/m 0,0 km/h (0 Bft) 100,00 %
07.05.2021 22:28 8,1 C 6,1 C 3,9 C 74 % 1018,8 hPa 0,0 l/m 0 min 0 min 0 W/m 0,0 km/h (0 Bft) 96,72 %
07.05.2021 22:30 8,1 C 6,1 C 3,9 C 75 % 1018,8 hPa 0,0 l/m 0 min 0 min 0 W/m 0,0 km/h (0 Bft) 97,83 %
07.05.2021 22:32 8,0 C 5,6 C 3,4 C 75 % 1018,8 hPa 0,0 l/m 0 min 0 min 0 W/m 0,0 km/h (0 Bft) 97,87 %
07.05.2021 22:34 8,0 C 5,6 C 3,4 C 75 % 1018,9 hPa 0,0 l/m 0 min 0 min 0 W/m 0,0 km/h (0 Bft) 97,87 %
07.05.2021 22:36 7,9 C 5,6 C 3,4 C 76 % 1018,9 hPa 0,0 l/m 0 min 0 min 0 W/m 0,0 km/h (0 Bft) 100,00 %
07.05.2021 22:38 7,9 C 5,6 C 3,4 C 76 % 1018,9 hPa 0,0 l/m 0 min 0 min 0 W/m 0,0 km/h (0 Bft) 100,00 %
07.05.2021 22:40 7,8 C 5,6 C 3,4 C 76 % 1018,9 hPa 0,0 l/m 0 min 0 min 0 W/m 0,0 km/h (0 Bft) 100,00 %
07.05.2021 22:42 7,8 C 5,6 C 3,4 C 76 % 1018,9 hPa 0,0 l/m 0 min 0 min 0 W/m 0,0 km/h (0 Bft) 100,00 %
07.05.2021 22:44 7,7 C 5,6 C 3,4 C 77 % 1018,9 hPa 0,0 l/m 0 min 0 min 0 W/m 0,0 km/h (0 Bft) 100,00 %
07.05.2021 22:46 7,6 C 5,6 C 3,4 C 77 % 1019,0 hPa 0,0 l/m 0 min 0 min 0 W/m 0,0 km/h (0 Bft) 100,00 %
07.05.2021 22:48 7,6 C 5,0 C 3,4 C 78 % 1019,0 hPa 0,0 l/m 0 min 0 min 0 W/m 0,0 km/h (0 Bft) 100,00 %
07.05.2021 22:50 7,5 C 5,0 C 3,4 C 78 % 1019,0 hPa 0,0 l/m 0 min 0 min 0 W/m 0,0 km/h (0 Bft) 100,00 %
07.05.2021 22:52 7,4 C 5,0 C 3,4 C 78 % 1019,0 hPa 0,0 l/m 0 min 0 min 0 W/m 0,0 km/h (0 Bft) 95,74 %
07.05.2021 22:54 7,4 C 5,0 C 3,4 C 79 % 1019,0 hPa 0,0 l/m 0 min 0 min 0 W/m 0,0 km/h (0 Bft) 97,87 %
07.05.2021 22:56 7,3 C 5,0 C 3,4 C 79 % 1019,0 hPa 0,0 l/m 0 min 0 min 0 W/m 0,0 km/h (0 Bft) 100,00 %
07.05.2021 22:58 7,2 C 5,0 C 3,4 C 79 % 1019,0 hPa 0,0 l/m 0 min 0 min 0 W/m 0,0 km/h (0 Bft) 100,00 %
07.05.2021 23:00 7,1 C 5,0 C 2,8 C 80 % 1019,0 hPa 0,0 l/m 0 min 0 min 0 W/m 0,0 km/h (0 Bft) 100,00 %
07.05.2021 23:02 7,1 C 5,0 C 2,8 C 80 % 1019,1 hPa 0,0 l/m 0 min 0 min 0 W/m 0,0 km/h (0 Bft) 100,00 %
07.05.2021 23:04 7,0 C 5,0 C 2,8 C 80 % 1019,0 hPa 0,0 l/m 0 min 0 min 0 W/m 0,0 km/h (0 Bft) 100,00 %
07.05.2021 23:06 7,0 C 5,0 C 2,8 C 80 % 1019,0 hPa 0,0 l/m 0 min 0 min 0 W/m 0,0 km/h (0 Bft) 100,00 %
07.05.2021 23:08 6,9 C 5,0 C 2,8 C 81 % 1019,1 hPa 0,0 l/m 0 min 0 min 0 W/m 0,0 km/h (0 Bft) 100,00 %
07.05.2021 23:10 6,9 C 5,0 C 2,8 C 81 % 1019,1 hPa 0,0 l/m 0 min 0 min 0 W/m 0,0 km/h (0 Bft) 100,00 %
07.05.2021 23:12 6,8 C 4,4 C 2,8 C 81 % 1019,1 hPa 0,0 l/m 0 min 0 min 0 W/m 0,0 km/h (0 Bft) 100,00 %
07.05.2021 23:14 6,8 C 4,4 C 2,8 C 81 % 1019,1 hPa 0,0 l/m 0 min 0 min 0 W/m 0,0 km/h (0 Bft) 100,00 %
07.05.2021 23:16 6,7 C 4,4 C 2,8 C 82 % 1019,0 hPa 0,0 l/m 0 min 0 min 0 W/m 0,0 km/h (0 Bft) 100,00 %
07.05.2021 23:18 6,6 C 4,4 C 2,8 C 82 % 1019,0 hPa 0,0 l/m 0 min 0 min 0 W/m 0,0 km/h (0 Bft) 100,00 %
07.05.2021 23:20 6,5 C 4,4 C 2,8 C 82 % 1019,1 hPa 0,0 l/m 0 min 0 min 0 W/m 0,0 km/h (0 Bft) 100,00 %
07.05.2021 23:22 6,5 C 4,4 C 2,8 C 82 % 1019,1 hPa 0,0 l/m 0 min 0 min 0 W/m 0,0 km/h (0 Bft) 100,00 %
07.05.2021 23:24 6,4 C 4,4 C 2,8 C 83 % 1019,1 hPa 0,0 l/m 0 min 0 min 0 W/m 0,0 km/h (0 Bft) 97,87 %
07.05.2021 23:26 6,4 C 4,4 C 2,8 C 83 % 1019,1 hPa 0,0 l/m 0 min 0 min 0 W/m 0,0 km/h (0 Bft) 97,83 %
07.05.2021 23:28 6,4 C 4,4 C 2,8 C 83 % 1019,1 hPa 0,0 l/m 0 min 0 min 0 W/m 0,0 km/h (0 Bft) 100,00 %
07.05.2021 23:30 6,3 C 4,4 C 2,8 C 83 % 1019,1 hPa 0,0 l/m 0 min 0 min 0 W/m 0,0 km/h (0 Bft) 100,00 %
07.05.2021 23:32 6,2 C 4,4 C 2,8 C 83 % 1019,0 hPa 0,0 l/m 0 min 0 min 0 W/m 0,0 km/h (0 Bft) 100,00 %
07.05.2021 23:34 6,2 C 4,4 C 2,3 C 83 % 1019,0 hPa 0,0 l/m 0 min 0 min 0 W/m 0,0 km/h (0 Bft) 100,00 %
07.05.2021 23:36 6,1 C 4,4 C 2,3 C 83 % 1019,1 hPa 0,0 l/m 0 min 0 min 0 W/m 0,0 km/h (0 Bft) 100,00 %
07.05.2021 23:38 6,1 C 4,4 C 2,3 C 83 % 1019,1 hPa 0,0 l/m 0 min 0 min 0 W/m 0,0 km/h (0 Bft) 100,00 %
07.05.2021 23:40 6,0 C 4,4 C 2,3 C 84 % 1019,0 hPa 0,0 l/m 0 min 0 min 0 W/m 0,0 km/h (0 Bft) 97,87 %
07.05.2021 23:42 6,0 C 4,4 C 2,3 C 84 % 1019,1 hPa 0,0 l/m 0 min 0 min 0 W/m 0,0 km/h (0 Bft) 100,00 %
07.05.2021 23:44 5,9 C 3,9 C 2,3 C 84 % 1019,1 hPa 0,0 l/m 0 min 0 min 0 W/m 0,0 km/h (0 Bft) 97,87 %
07.05.2021 23:46 5,9 C 3,9 C 2,3 C 84 % 1019,1 hPa 0,0 l/m 0 min 0 min 0 W/m 0,0 km/h (0 Bft) 97,87 %
07.05.2021 23:48 5,9 C 3,9 C 2,3 C 84 % 1019,1 hPa 0,0 l/m 0 min 0 min 0 W/m 0,0 km/h (0 Bft) 97,87 %
07.05.2021 23:50 5,8 C 3,9 C 2,3 C 84 % 1019,1 hPa 0,0 l/m 0 min 0 min 0 W/m 0,0 km/h (0 Bft) 97,83 %
07.05.2021 23:52 5,8 C 3,9 C 2,3 C 85 % 1019,1 hPa 0,0 l/m 0 min 0 min 0 W/m 0,0 km/h (0 Bft) 95,74 %
07.05.2021 23:54 5,7 C 3,9 C 2,3 C 85 % 1019,1 hPa 0,0 l/m 0 min 0 min 0 W/m 0,0 km/h (0 Bft) 97,87 %
07.05.2021 23:56 5,6 C 3,9 C 2,3 C 85 % 1019,1 hPa 0,0 l/m 0 min 0 min 0 W/m 0,0 km/h (0 Bft) 97,87 %
07.05.2021 23:58 5,6 C 3,9 C 2,3 C 85 % 1019,1 hPa 0,0 l/m 0 min 0 min 0 W/m 0,0 km/h (0 Bft) 97,87 %
_ Min-Zeit 08:56 08:44 08:54 17:28 00:22 - - - - 00:14 10:24
Minimum _ 3,0 C 2,2 C 1,1 C 51 % 1007,3 hPa - - - - 0,0 km/h (0 Bft) 48,78 %
_ Max-Zeit 17:24 17:10 13:14 07:26 23:02 07:34 12:08 01:30 12:50 14:16 00:00
Maximum _ 13,9 C 19,4 C 21,1 C 98 % 1019,1 hPa 0,4 l/m 4 min 2 min 1112 W/m 32,2 km/h
N-NO (5 Bft)
100,00 %
Durchschnitt _ 7,8 C 8,0 C 6,1 C 80 % 1013,9 hPa #3,6 l/m #5:38 h #1:40 h 308 W/m 7,9 km/h (2 Bft) 97,26 %
© 2021 W. Hausmann